<?xml version="1.0" encoding="UTF-8" standalone="no" ?>
<gpx xmlns="http://www.topografix.com/GPX/1/1" xmlns:xsi="http://www.w3.org/2001/XMLSchema-instance" xsi:schemaLocation="http://www.topografix.com/GPX/1/1 http://www.topografix.com/GPX/1/1/gpx.xsd" version="1.1" creator="VisuGPX - https://www.visugpx.com">
  <metadata>
    <name>CDLP Grimaud - Collobrieres version short HW</name>
    <desc><![CDATA[CDLP Grimaud - Collobrieres version short HW
Boucle au départ du "Camping de la Plage" en passant par Collobrieres.]]></desc>
  </metadata>
  <trk>
    <name><![CDATA[2017 LCDLP Collobrieres AR version short]]></name>
    <trkseg>
      <trkpt lat="43.28199" lon="6.58664">
        <ele>4.499125</ele>
        <time>2016-07-19T07:11:57Z</time>
      </trkpt>
      <trkpt lat="43.28211" lon="6.58618">
        <ele>5.772538</ele>
        <time>2016-07-19T07:12:16Z</time>
      </trkpt>
      <trkpt lat="43.28202" lon="6.58589">
        <ele>5.6425</ele>
        <time>2016-07-19T07:12:34Z</time>
      </trkpt>
      <trkpt lat="43.28187" lon="6.58537">
        <ele>5.46</ele>
        <time>2016-07-19T07:12:47Z</time>
      </trkpt>
      <trkpt lat="43.28172" lon="6.58484">
        <ele>5.88</ele>
        <time>2016-07-19T07:13:01Z</time>
      </trkpt>
      <trkpt lat="43.28156" lon="6.58424">
        <ele>5.465</ele>
        <time>2016-07-19T07:13:14Z</time>
      </trkpt>
      <trkpt lat="43.2814" lon="6.58367">
        <ele>5.0775</ele>
        <time>2016-07-19T07:13:24Z</time>
      </trkpt>
      <trkpt lat="43.28126" lon="6.58307">
        <ele>5.601175</ele>
        <time>2016-07-19T07:13:34Z</time>
      </trkpt>
      <trkpt lat="43.28109" lon="6.58257">
        <ele>5.2775</ele>
        <time>2016-07-19T07:13:45Z</time>
      </trkpt>
      <trkpt lat="43.28098" lon="6.582">
        <ele>4.995587</ele>
        <time>2016-07-19T07:13:57Z</time>
      </trkpt>
      <trkpt lat="43.28085" lon="6.58146">
        <ele>5.27195</ele>
        <time>2016-07-19T07:14:09Z</time>
      </trkpt>
      <trkpt lat="43.2807" lon="6.58089">
        <ele>5.51425</ele>
        <time>2016-07-19T07:14:21Z</time>
      </trkpt>
      <trkpt lat="43.28055" lon="6.58035">
        <ele>6.185</ele>
        <time>2016-07-19T07:14:31Z</time>
      </trkpt>
      <trkpt lat="43.28033" lon="6.57984">
        <ele>6.99625</ele>
        <time>2016-07-19T07:14:43Z</time>
      </trkpt>
      <trkpt lat="43.28011" lon="6.57934">
        <ele>7.135413</ele>
        <time>2016-07-19T07:14:51Z</time>
      </trkpt>
      <trkpt lat="43.27987" lon="6.57883">
        <ele>7.89375</ele>
        <time>2016-07-19T07:14:58Z</time>
      </trkpt>
      <trkpt lat="43.27963" lon="6.57841">
        <ele>8.077138</ele>
        <time>2016-07-19T07:15:05Z</time>
      </trkpt>
      <trkpt lat="43.2794" lon="6.57791">
        <ele>8.88225</ele>
        <time>2016-07-19T07:15:15Z</time>
      </trkpt>
      <trkpt lat="43.27917" lon="6.57741">
        <ele>9</ele>
        <time>2016-07-19T07:15:25Z</time>
      </trkpt>
      <trkpt lat="43.27895" lon="6.57688">
        <ele>8.38201</ele>
        <time>2016-07-19T07:15:34Z</time>
      </trkpt>
      <trkpt lat="43.27863" lon="6.57649">
        <ele>8</ele>
        <time>2016-07-19T07:15:43Z</time>
      </trkpt>
      <trkpt lat="43.27835" lon="6.5761">
        <ele>7.696353</ele>
        <time>2016-07-19T07:15:55Z</time>
      </trkpt>
      <trkpt lat="43.27854" lon="6.57577">
        <ele>7.630687</ele>
        <time>2016-07-19T07:16:24Z</time>
      </trkpt>
      <trkpt lat="43.27851" lon="6.5753">
        <ele>6.984875</ele>
        <time>2016-07-19T07:16:41Z</time>
      </trkpt>
      <trkpt lat="43.27844" lon="6.57475">
        <ele>6.7025</ele>
        <time>2016-07-19T07:16:57Z</time>
      </trkpt>
      <trkpt lat="43.27833" lon="6.57421">
        <ele>6.42</ele>
        <time>2016-07-19T07:17:07Z</time>
      </trkpt>
      <trkpt lat="43.27816" lon="6.57369">
        <ele>5.9825</ele>
        <time>2016-07-19T07:17:16Z</time>
      </trkpt>
      <trkpt lat="43.2778" lon="6.57268">
        <ele>6.1025</ele>
        <time>2016-07-19T07:17:33Z</time>
      </trkpt>
      <trkpt lat="43.27761" lon="6.57218">
        <ele>5.75375</ele>
        <time>2016-07-19T07:17:43Z</time>
      </trkpt>
      <trkpt lat="43.27737" lon="6.57172">
        <ele>5.90375</ele>
        <time>2016-07-19T07:17:54Z</time>
      </trkpt>
      <trkpt lat="43.27714" lon="6.57128">
        <ele>5.754975</ele>
        <time>2016-07-19T07:18:03Z</time>
      </trkpt>
      <trkpt lat="43.27682" lon="6.57084">
        <ele>6</ele>
        <time>2016-07-19T07:18:13Z</time>
      </trkpt>
      <trkpt lat="43.27654" lon="6.57044">
        <ele>6</ele>
        <time>2016-07-19T07:18:22Z</time>
      </trkpt>
      <trkpt lat="43.27625" lon="6.57005">
        <ele>6</ele>
        <time>2016-07-19T07:18:31Z</time>
      </trkpt>
      <trkpt lat="43.27596" lon="6.56964">
        <ele>6</ele>
        <time>2016-07-19T07:18:41Z</time>
      </trkpt>
      <trkpt lat="43.27578" lon="6.56913">
        <ele>6</ele>
        <time>2016-07-19T07:18:52Z</time>
      </trkpt>
      <trkpt lat="43.27563" lon="6.56857">
        <ele>6</ele>
        <time>2016-07-19T07:19:03Z</time>
      </trkpt>
      <trkpt lat="43.27548" lon="6.56801">
        <ele>6</ele>
        <time>2016-07-19T07:19:14Z</time>
      </trkpt>
      <trkpt lat="43.27533" lon="6.5675">
        <ele>6.067528</ele>
        <time>2016-07-19T07:19:24Z</time>
      </trkpt>
      <trkpt lat="43.27519" lon="6.56693">
        <ele>6.3475</ele>
        <time>2016-07-19T07:19:41Z</time>
      </trkpt>
      <trkpt lat="43.27505" lon="6.56638">
        <ele>7</ele>
        <time>2016-07-19T07:19:52Z</time>
      </trkpt>
      <trkpt lat="43.27487" lon="6.56587">
        <ele>7</ele>
        <time>2016-07-19T07:20:04Z</time>
      </trkpt>
      <trkpt lat="43.27461" lon="6.56539">
        <ele>7</ele>
        <time>2016-07-19T07:20:15Z</time>
      </trkpt>
      <trkpt lat="43.27433" lon="6.56494">
        <ele>7</ele>
        <time>2016-07-19T07:20:25Z</time>
      </trkpt>
      <trkpt lat="43.27406" lon="6.56449">
        <ele>7</ele>
        <time>2016-07-19T07:20:34Z</time>
      </trkpt>
      <trkpt lat="43.27379" lon="6.56409">
        <ele>7</ele>
        <time>2016-07-19T07:20:45Z</time>
      </trkpt>
      <trkpt lat="43.27359" lon="6.56359">
        <ele>7</ele>
        <time>2016-07-19T07:20:56Z</time>
      </trkpt>
      <trkpt lat="43.27349" lon="6.56302">
        <ele>7</ele>
        <time>2016-07-19T07:21:06Z</time>
      </trkpt>
      <trkpt lat="43.27341" lon="6.56247">
        <ele>7.375</ele>
        <time>2016-07-19T07:21:14Z</time>
      </trkpt>
      <trkpt lat="43.27315" lon="6.56198">
        <ele>8</ele>
        <time>2016-07-19T07:21:25Z</time>
      </trkpt>
      <trkpt lat="43.27287" lon="6.56153">
        <ele>8</ele>
        <time>2016-07-19T07:21:36Z</time>
      </trkpt>
      <trkpt lat="43.2726" lon="6.56111">
        <ele>8</ele>
        <time>2016-07-19T07:21:46Z</time>
      </trkpt>
      <trkpt lat="43.27236" lon="6.56065">
        <ele>8</ele>
        <time>2016-07-19T07:21:57Z</time>
      </trkpt>
      <trkpt lat="43.27222" lon="6.56013">
        <ele>8</ele>
        <time>2016-07-19T07:22:08Z</time>
      </trkpt>
      <trkpt lat="43.27214" lon="6.55955">
        <ele>8</ele>
        <time>2016-07-19T07:22:19Z</time>
      </trkpt>
      <trkpt lat="43.27208" lon="6.55898">
        <ele>8.885</ele>
        <time>2016-07-19T07:22:30Z</time>
      </trkpt>
      <trkpt lat="43.27202" lon="6.55842">
        <ele>9</ele>
        <time>2016-07-19T07:22:40Z</time>
      </trkpt>
      <trkpt lat="43.27194" lon="6.55789">
        <ele>9</ele>
        <time>2016-07-19T07:22:50Z</time>
      </trkpt>
      <trkpt lat="43.27187" lon="6.55734">
        <ele>9</ele>
        <time>2016-07-19T07:23:00Z</time>
      </trkpt>
      <trkpt lat="43.27182" lon="6.55678">
        <ele>9</ele>
        <time>2016-07-19T07:23:09Z</time>
      </trkpt>
      <trkpt lat="43.27174" lon="6.55619">
        <ele>9</ele>
        <time>2016-07-19T07:23:18Z</time>
      </trkpt>
      <trkpt lat="43.27159" lon="6.55572">
        <ele>9</ele>
        <time>2016-07-19T07:23:31Z</time>
      </trkpt>
      <trkpt lat="43.27144" lon="6.55535">
        <ele>9</ele>
        <time>2016-07-19T07:24:43Z</time>
      </trkpt>
      <trkpt lat="43.2712" lon="6.55484">
        <ele>9</ele>
        <time>2016-07-19T07:25:00Z</time>
      </trkpt>
      <trkpt lat="43.27103" lon="6.55436">
        <ele>9.2525</ele>
        <time>2016-07-19T07:25:11Z</time>
      </trkpt>
      <trkpt lat="43.27089" lon="6.55382">
        <ele>10.009625</ele>
        <time>2016-07-19T07:25:23Z</time>
      </trkpt>
      <trkpt lat="43.27073" lon="6.55325">
        <ele>9.72125</ele>
        <time>2016-07-19T07:25:33Z</time>
      </trkpt>
      <trkpt lat="43.27058" lon="6.55268">
        <ele>10.24</ele>
        <time>2016-07-19T07:25:42Z</time>
      </trkpt>
      <trkpt lat="43.27045" lon="6.55216">
        <ele>10.732194</ele>
        <time>2016-07-19T07:25:50Z</time>
      </trkpt>
      <trkpt lat="43.27028" lon="6.55164">
        <ele>10.55</ele>
        <time>2016-07-19T07:25:57Z</time>
      </trkpt>
      <trkpt lat="43.27009" lon="6.55114">
        <ele>10.41725</ele>
        <time>2016-07-19T07:26:06Z</time>
      </trkpt>
      <trkpt lat="43.26991" lon="6.55066">
        <ele>11.13375</ele>
        <time>2016-07-19T07:26:16Z</time>
      </trkpt>
      <trkpt lat="43.26967" lon="6.55023">
        <ele>11.81</ele>
        <time>2016-07-19T07:26:27Z</time>
      </trkpt>
      <trkpt lat="43.26954" lon="6.54971">
        <ele>11.907244</ele>
        <time>2016-07-19T07:26:37Z</time>
      </trkpt>
      <trkpt lat="43.26939" lon="6.54917">
        <ele>12.49875</ele>
        <time>2016-07-19T07:26:47Z</time>
      </trkpt>
      <trkpt lat="43.26922" lon="6.54864">
        <ele>13</ele>
        <time>2016-07-19T07:26:55Z</time>
      </trkpt>
      <trkpt lat="43.26902" lon="6.54811">
        <ele>13.070687</ele>
        <time>2016-07-19T07:27:03Z</time>
      </trkpt>
      <trkpt lat="43.26874" lon="6.54822">
        <ele>12.9935</ele>
        <time>2016-07-19T07:27:11Z</time>
      </trkpt>
      <trkpt lat="43.26836" lon="6.54832">
        <ele>12.745007</ele>
        <time>2016-07-19T07:27:21Z</time>
      </trkpt>
      <trkpt lat="43.26804" lon="6.54792">
        <ele>12.511047</ele>
        <time>2016-07-19T07:27:31Z</time>
      </trkpt>
      <trkpt lat="43.26773" lon="6.54751">
        <ele>12.520906</ele>
        <time>2016-07-19T07:27:40Z</time>
      </trkpt>
      <trkpt lat="43.26737" lon="6.54728">
        <ele>12</ele>
        <time>2016-07-19T07:27:48Z</time>
      </trkpt>
      <trkpt lat="43.26703" lon="6.54693">
        <ele>11.987094</ele>
        <time>2016-07-19T07:27:55Z</time>
      </trkpt>
      <trkpt lat="43.26671" lon="6.54656">
        <ele>12</ele>
        <time>2016-07-19T07:28:02Z</time>
      </trkpt>
      <trkpt lat="43.26633" lon="6.54633">
        <ele>11.822138</ele>
        <time>2016-07-19T07:28:10Z</time>
      </trkpt>
      <trkpt lat="43.26602" lon="6.54589">
        <ele>11.748718</ele>
        <time>2016-07-19T07:28:18Z</time>
      </trkpt>
      <trkpt lat="43.26573" lon="6.54549">
        <ele>11.9025</ele>
        <time>2016-07-19T07:28:25Z</time>
      </trkpt>
      <trkpt lat="43.26545" lon="6.54508">
        <ele>11.741813</ele>
        <time>2016-07-19T07:28:32Z</time>
      </trkpt>
      <trkpt lat="43.26511" lon="6.54471">
        <ele>11.584875</ele>
        <time>2016-07-19T07:28:41Z</time>
      </trkpt>
      <trkpt lat="43.26471" lon="6.54443">
        <ele>11.346075</ele>
        <time>2016-07-19T07:29:02Z</time>
      </trkpt>
      <trkpt lat="43.2643" lon="6.54425">
        <ele>10.952025</ele>
        <time>2016-07-19T07:29:12Z</time>
      </trkpt>
      <trkpt lat="43.26389" lon="6.54406">
        <ele>10.6975</ele>
        <time>2016-07-19T07:29:21Z</time>
      </trkpt>
      <trkpt lat="43.26354" lon="6.54379">
        <ele>9.949206</ele>
        <time>2016-07-19T07:29:29Z</time>
      </trkpt>
      <trkpt lat="43.26344" lon="6.54324">
        <ele>10</ele>
        <time>2016-07-19T07:29:38Z</time>
      </trkpt>
      <trkpt lat="43.26319" lon="6.54274">
        <ele>10.002531</ele>
        <time>2016-07-19T07:29:47Z</time>
      </trkpt>
      <trkpt lat="43.26298" lon="6.54227">
        <ele>9.96605</ele>
        <time>2016-07-19T07:29:56Z</time>
      </trkpt>
      <trkpt lat="43.26284" lon="6.54173">
        <ele>10.128781</ele>
        <time>2016-07-19T07:30:05Z</time>
      </trkpt>
      <trkpt lat="43.26263" lon="6.54123">
        <ele>10.373062</ele>
        <time>2016-07-19T07:30:14Z</time>
      </trkpt>
      <trkpt lat="43.26239" lon="6.54073">
        <ele>10.41095</ele>
        <time>2016-07-19T07:30:23Z</time>
      </trkpt>
      <trkpt lat="43.26217" lon="6.54028">
        <ele>10.570457</ele>
        <time>2016-07-19T07:30:32Z</time>
      </trkpt>
      <trkpt lat="43.26194" lon="6.53978">
        <ele>10.85125</ele>
        <time>2016-07-19T07:30:43Z</time>
      </trkpt>
      <trkpt lat="43.26175" lon="6.53929">
        <ele>11.6225</ele>
        <time>2016-07-19T07:30:53Z</time>
      </trkpt>
      <trkpt lat="43.26149" lon="6.53879">
        <ele>11.937381</ele>
        <time>2016-07-19T07:31:03Z</time>
      </trkpt>
      <trkpt lat="43.26117" lon="6.53864">
        <ele>11.689425</ele>
        <time>2016-07-19T07:31:14Z</time>
      </trkpt>
      <trkpt lat="43.26081" lon="6.53877">
        <ele>11.761406</ele>
        <time>2016-07-19T07:31:23Z</time>
      </trkpt>
      <trkpt lat="43.26041" lon="6.53891">
        <ele>12</ele>
        <time>2016-07-19T07:31:34Z</time>
      </trkpt>
      <trkpt lat="43.26011" lon="6.53863">
        <ele>12</ele>
        <time>2016-07-19T07:31:46Z</time>
      </trkpt>
      <trkpt lat="43.26001" lon="6.53807">
        <ele>12.4</ele>
        <time>2016-07-19T07:31:56Z</time>
      </trkpt>
      <trkpt lat="43.25986" lon="6.53753">
        <ele>13.21945</ele>
        <time>2016-07-19T07:32:07Z</time>
      </trkpt>
      <trkpt lat="43.25948" lon="6.53729">
        <ele>13.615</ele>
        <time>2016-07-19T07:32:19Z</time>
      </trkpt>
      <trkpt lat="43.25918" lon="6.53688">
        <ele>14.097103</ele>
        <time>2016-07-19T07:32:30Z</time>
      </trkpt>
      <trkpt lat="43.25878" lon="6.53663">
        <ele>14.731841</ele>
        <time>2016-07-19T07:32:39Z</time>
      </trkpt>
      <trkpt lat="43.25837" lon="6.53653">
        <ele>15</ele>
        <time>2016-07-19T07:32:50Z</time>
      </trkpt>
      <trkpt lat="43.25829" lon="6.53651">
        <ele>15</ele>
        <time>2016-07-19T07:33:08Z</time>
      </trkpt>
      <trkpt lat="43.25843" lon="6.53691">
        <ele>15</ele>
        <time>2016-07-19T07:33:21Z</time>
      </trkpt>
      <trkpt lat="43.25833" lon="6.53754">
        <ele>14.05875</ele>
        <time>2016-07-19T07:33:30Z</time>
      </trkpt>
      <trkpt lat="43.25822" lon="6.5381">
        <ele>13.145</ele>
        <time>2016-07-19T07:33:37Z</time>
      </trkpt>
      <trkpt lat="43.25821" lon="6.53868">
        <ele>12.518269</ele>
        <time>2016-07-19T07:33:46Z</time>
      </trkpt>
      <trkpt lat="43.25823" lon="6.53925">
        <ele>11.59125</ele>
        <time>2016-07-19T07:33:56Z</time>
      </trkpt>
      <trkpt lat="43.25816" lon="6.53983">
        <ele>10.73</ele>
        <time>2016-07-19T07:34:06Z</time>
      </trkpt>
      <trkpt lat="43.25803" lon="6.5404">
        <ele>9.634288</ele>
        <time>2016-07-19T07:34:15Z</time>
      </trkpt>
      <trkpt lat="43.2579" lon="6.54097">
        <ele>8.493472</ele>
        <time>2016-07-19T07:34:24Z</time>
      </trkpt>
      <trkpt lat="43.25777" lon="6.54155">
        <ele>8</ele>
        <time>2016-07-19T07:34:33Z</time>
      </trkpt>
      <trkpt lat="43.25771" lon="6.54212">
        <ele>8.355635</ele>
        <time>2016-07-19T07:34:40Z</time>
      </trkpt>
      <trkpt lat="43.25765" lon="6.5427">
        <ele>8.816231</ele>
        <time>2016-07-19T07:34:47Z</time>
      </trkpt>
      <trkpt lat="43.25755" lon="6.54324">
        <ele>9</ele>
        <time>2016-07-19T07:34:55Z</time>
      </trkpt>
      <trkpt lat="43.25737" lon="6.54375">
        <ele>9</ele>
        <time>2016-07-19T07:35:03Z</time>
      </trkpt>
      <trkpt lat="43.2572" lon="6.54424">
        <ele>9</ele>
        <time>2016-07-19T07:35:11Z</time>
      </trkpt>
      <trkpt lat="43.25706" lon="6.5448">
        <ele>9</ele>
        <time>2016-07-19T07:35:19Z</time>
      </trkpt>
      <trkpt lat="43.25689" lon="6.54529">
        <ele>9</ele>
        <time>2016-07-19T07:35:27Z</time>
      </trkpt>
      <trkpt lat="43.25647" lon="6.54551">
        <ele>9</ele>
        <time>2016-07-19T07:35:38Z</time>
      </trkpt>
      <trkpt lat="43.25605" lon="6.54575">
        <ele>9</ele>
        <time>2016-07-19T07:35:48Z</time>
      </trkpt>
      <trkpt lat="43.2556" lon="6.54596">
        <ele>9</ele>
        <time>2016-07-19T07:35:59Z</time>
      </trkpt>
      <trkpt lat="43.25516" lon="6.54609">
        <ele>9</ele>
        <time>2016-07-19T07:36:09Z</time>
      </trkpt>
      <trkpt lat="43.25472" lon="6.54617">
        <ele>9</ele>
        <time>2016-07-19T07:36:20Z</time>
      </trkpt>
      <trkpt lat="43.25434" lon="6.54622">
        <ele>9</ele>
        <time>2016-07-19T07:36:29Z</time>
      </trkpt>
      <trkpt lat="43.25429" lon="6.54673">
        <ele>9</ele>
        <time>2016-07-19T07:36:54Z</time>
      </trkpt>
      <trkpt lat="43.25429" lon="6.5473">
        <ele>9</ele>
        <time>2016-07-19T07:37:08Z</time>
      </trkpt>
      <trkpt lat="43.25423" lon="6.54788">
        <ele>9</ele>
        <time>2016-07-19T07:37:23Z</time>
      </trkpt>
      <trkpt lat="43.2543" lon="6.54846">
        <ele>9</ele>
        <time>2016-07-19T07:37:32Z</time>
      </trkpt>
      <trkpt lat="43.25439" lon="6.54898">
        <ele>9</ele>
        <time>2016-07-19T07:37:43Z</time>
      </trkpt>
      <trkpt lat="43.25479" lon="6.5489">
        <ele>9</ele>
        <time>2016-07-19T07:37:57Z</time>
      </trkpt>
      <trkpt lat="43.2552" lon="6.54884">
        <ele>9</ele>
        <time>2016-07-19T07:38:10Z</time>
      </trkpt>
      <trkpt lat="43.25535" lon="6.54937">
        <ele>9</ele>
        <time>2016-07-19T07:38:23Z</time>
      </trkpt>
      <trkpt lat="43.25545" lon="6.54995">
        <ele>9</ele>
        <time>2016-07-19T07:38:31Z</time>
      </trkpt>
      <trkpt lat="43.25554" lon="6.5505">
        <ele>9</ele>
        <time>2016-07-19T07:38:39Z</time>
      </trkpt>
      <trkpt lat="43.2556" lon="6.55108">
        <ele>9</ele>
        <time>2016-07-19T07:38:51Z</time>
      </trkpt>
      <trkpt lat="43.2557" lon="6.55161">
        <ele>9</ele>
        <time>2016-07-19T07:39:01Z</time>
      </trkpt>
      <trkpt lat="43.2558" lon="6.55217">
        <ele>9</ele>
        <time>2016-07-19T07:39:13Z</time>
      </trkpt>
      <trkpt lat="43.25547" lon="6.55238">
        <ele>9</ele>
        <time>2016-07-19T07:39:25Z</time>
      </trkpt>
      <trkpt lat="43.25507" lon="6.55247">
        <ele>9</ele>
        <time>2016-07-19T07:39:39Z</time>
      </trkpt>
      <trkpt lat="43.25467" lon="6.55259">
        <ele>9</ele>
        <time>2016-07-19T07:39:53Z</time>
      </trkpt>
      <trkpt lat="43.25427" lon="6.55274">
        <ele>9</ele>
        <time>2016-07-19T07:40:08Z</time>
      </trkpt>
      <trkpt lat="43.25429" lon="6.55329">
        <ele>9</ele>
        <time>2016-07-19T07:40:18Z</time>
      </trkpt>
      <trkpt lat="43.25432" lon="6.55385">
        <ele>9</ele>
        <time>2016-07-19T07:40:27Z</time>
      </trkpt>
      <trkpt lat="43.25434" lon="6.55441">
        <ele>9</ele>
        <time>2016-07-19T07:40:34Z</time>
      </trkpt>
      <trkpt lat="43.25435" lon="6.555">
        <ele>8.2275</ele>
        <time>2016-07-19T07:40:41Z</time>
      </trkpt>
      <trkpt lat="43.25429" lon="6.55554">
        <ele>8</ele>
        <time>2016-07-19T07:40:52Z</time>
      </trkpt>
      <trkpt lat="43.25394" lon="6.55584">
        <ele>8.19125</ele>
        <time>2016-07-19T07:41:05Z</time>
      </trkpt>
      <trkpt lat="43.25366" lon="6.55629">
        <ele>8.9575</ele>
        <time>2016-07-19T07:41:16Z</time>
      </trkpt>
      <trkpt lat="43.25337" lon="6.55605">
        <ele>8.58875</ele>
        <time>2016-07-19T07:41:43Z</time>
      </trkpt>
      <trkpt lat="43.25305" lon="6.55569">
        <ele>8.064865</ele>
        <time>2016-07-19T07:41:51Z</time>
      </trkpt>
      <trkpt lat="43.25271" lon="6.55532">
        <ele>8</ele>
        <time>2016-07-19T07:42:00Z</time>
      </trkpt>
      <trkpt lat="43.25224" lon="6.55524">
        <ele>8.092894</ele>
        <time>2016-07-19T07:42:46Z</time>
      </trkpt>
      <trkpt lat="43.25191" lon="6.55554">
        <ele>8.873037</ele>
        <time>2016-07-19T07:43:00Z</time>
      </trkpt>
      <trkpt lat="43.25152" lon="6.55574">
        <ele>10.503356</ele>
        <time>2016-07-19T07:43:13Z</time>
      </trkpt>
      <trkpt lat="43.25112" lon="6.55553">
        <ele>10.7375</ele>
        <time>2016-07-19T07:43:26Z</time>
      </trkpt>
      <trkpt lat="43.25074" lon="6.55528">
        <ele>10.885</ele>
        <time>2016-07-19T07:43:42Z</time>
      </trkpt>
      <trkpt lat="43.2503" lon="6.55499">
        <ele>11.199437</ele>
        <time>2016-07-19T07:43:54Z</time>
      </trkpt>
      <trkpt lat="43.24989" lon="6.55465">
        <ele>11.592313</ele>
        <time>2016-07-19T07:44:05Z</time>
      </trkpt>
      <trkpt lat="43.24946" lon="6.55452">
        <ele>12.737459</ele>
        <time>2016-07-19T07:44:14Z</time>
      </trkpt>
      <trkpt lat="43.24905" lon="6.55464">
        <ele>15.366919</ele>
        <time>2016-07-19T07:44:24Z</time>
      </trkpt>
      <trkpt lat="43.24866" lon="6.55457">
        <ele>14.916787</ele>
        <time>2016-07-19T07:44:36Z</time>
      </trkpt>
      <trkpt lat="43.24842" lon="6.5541">
        <ele>12.744206</ele>
        <time>2016-07-19T07:44:48Z</time>
      </trkpt>
      <trkpt lat="43.24815" lon="6.55364">
        <ele>12.5475</ele>
        <time>2016-07-19T07:44:58Z</time>
      </trkpt>
      <trkpt lat="43.2479" lon="6.55319">
        <ele>11.532</ele>
        <time>2016-07-19T07:45:07Z</time>
      </trkpt>
      <trkpt lat="43.24764" lon="6.55278">
        <ele>10.944219</ele>
        <time>2016-07-19T07:45:16Z</time>
      </trkpt>
      <trkpt lat="43.24725" lon="6.55256">
        <ele>13.823785</ele>
        <time>2016-07-19T07:45:26Z</time>
      </trkpt>
      <trkpt lat="43.24695" lon="6.55214">
        <ele>13.170319</ele>
        <time>2016-07-19T07:45:36Z</time>
      </trkpt>
      <trkpt lat="43.24655" lon="6.55179">
        <ele>14.26595</ele>
        <time>2016-07-19T07:45:47Z</time>
      </trkpt>
      <trkpt lat="43.24609" lon="6.55148">
        <ele>14.325</ele>
        <time>2016-07-19T07:45:59Z</time>
      </trkpt>
      <trkpt lat="43.2457" lon="6.55117">
        <ele>14.72125</ele>
        <time>2016-07-19T07:46:10Z</time>
      </trkpt>
      <trkpt lat="43.24533" lon="6.55085">
        <ele>15.08125</ele>
        <time>2016-07-19T07:46:27Z</time>
      </trkpt>
      <trkpt lat="43.24535" lon="6.55026">
        <ele>14.1225</ele>
        <time>2016-07-19T07:46:37Z</time>
      </trkpt>
      <trkpt lat="43.24518" lon="6.54977">
        <ele>14.146697</ele>
        <time>2016-07-19T07:46:45Z</time>
      </trkpt>
      <trkpt lat="43.24483" lon="6.54944">
        <ele>14.182341</ele>
        <time>2016-07-19T07:46:54Z</time>
      </trkpt>
      <trkpt lat="43.24447" lon="6.54908">
        <ele>14.37875</ele>
        <time>2016-07-19T07:47:04Z</time>
      </trkpt>
      <trkpt lat="43.24424" lon="6.54869">
        <ele>14.5825</ele>
        <time>2016-07-19T07:47:13Z</time>
      </trkpt>
      <trkpt lat="43.2442" lon="6.54809">
        <ele>14.5463</ele>
        <time>2016-07-19T07:47:22Z</time>
      </trkpt>
      <trkpt lat="43.24423" lon="6.54754">
        <ele>14</ele>
        <time>2016-07-19T07:47:32Z</time>
      </trkpt>
      <trkpt lat="43.24407" lon="6.54707">
        <ele>14.1</ele>
        <time>2016-07-19T07:47:42Z</time>
      </trkpt>
      <trkpt lat="43.24371" lon="6.54672">
        <ele>14.961488</ele>
        <time>2016-07-19T07:47:51Z</time>
      </trkpt>
      <trkpt lat="43.24333" lon="6.54638">
        <ele>15</ele>
        <time>2016-07-19T07:48:00Z</time>
      </trkpt>
      <trkpt lat="43.24301" lon="6.54604">
        <ele>15.238847</ele>
        <time>2016-07-19T07:48:08Z</time>
      </trkpt>
      <trkpt lat="43.24267" lon="6.54571">
        <ele>15.949865</ele>
        <time>2016-07-19T07:48:17Z</time>
      </trkpt>
      <trkpt lat="43.24231" lon="6.54539">
        <ele>16</ele>
        <time>2016-07-19T07:48:26Z</time>
      </trkpt>
      <trkpt lat="43.24197" lon="6.54515">
        <ele>16</ele>
        <time>2016-07-19T07:48:35Z</time>
      </trkpt>
      <trkpt lat="43.24162" lon="6.54489">
        <ele>16.779694</ele>
        <time>2016-07-19T07:48:48Z</time>
      </trkpt>
      <trkpt lat="43.24121" lon="6.54454">
        <ele>17</ele>
        <time>2016-07-19T07:49:01Z</time>
      </trkpt>
      <trkpt lat="43.24076" lon="6.54418">
        <ele>17</ele>
        <time>2016-07-19T07:49:13Z</time>
      </trkpt>
      <trkpt lat="43.24041" lon="6.54381">
        <ele>17.5175</ele>
        <time>2016-07-19T07:49:26Z</time>
      </trkpt>
      <trkpt lat="43.24001" lon="6.54335">
        <ele>17.5525</ele>
        <time>2016-07-19T07:49:37Z</time>
      </trkpt>
      <trkpt lat="43.23968" lon="6.54287">
        <ele>17.191525</ele>
        <time>2016-07-19T07:49:47Z</time>
      </trkpt>
      <trkpt lat="43.23945" lon="6.54239">
        <ele>17.042328</ele>
        <time>2016-07-19T07:49:57Z</time>
      </trkpt>
      <trkpt lat="43.23916" lon="6.54189">
        <ele>17.130899</ele>
        <time>2016-07-19T07:50:07Z</time>
      </trkpt>
      <trkpt lat="43.23893" lon="6.54138">
        <ele>17</ele>
        <time>2016-07-19T07:50:18Z</time>
      </trkpt>
      <trkpt lat="43.2387" lon="6.54087">
        <ele>17</ele>
        <time>2016-07-19T07:50:28Z</time>
      </trkpt>
      <trkpt lat="43.2385" lon="6.5404">
        <ele>17.059999</ele>
        <time>2016-07-19T07:50:39Z</time>
      </trkpt>
      <trkpt lat="43.23822" lon="6.53992">
        <ele>17.7225</ele>
        <time>2016-07-19T07:50:57Z</time>
      </trkpt>
      <trkpt lat="43.23793" lon="6.5394">
        <ele>18</ele>
        <time>2016-07-19T07:51:08Z</time>
      </trkpt>
      <trkpt lat="43.23769" lon="6.53887">
        <ele>18</ele>
        <time>2016-07-19T07:51:19Z</time>
      </trkpt>
      <trkpt lat="43.2375" lon="6.53831">
        <ele>18</ele>
        <time>2016-07-19T07:51:29Z</time>
      </trkpt>
      <trkpt lat="43.23726" lon="6.53774">
        <ele>18.032566</ele>
        <time>2016-07-19T07:51:39Z</time>
      </trkpt>
      <trkpt lat="43.23706" lon="6.53719">
        <ele>17.954437</ele>
        <time>2016-07-19T07:51:49Z</time>
      </trkpt>
      <trkpt lat="43.23697" lon="6.5366">
        <ele>17.74375</ele>
        <time>2016-07-19T07:52:00Z</time>
      </trkpt>
      <trkpt lat="43.23687" lon="6.53609">
        <ele>17.177343</ele>
        <time>2016-07-19T07:52:09Z</time>
      </trkpt>
      <trkpt lat="43.23676" lon="6.53556">
        <ele>16.633749</ele>
        <time>2016-07-19T07:52:19Z</time>
      </trkpt>
      <trkpt lat="43.23663" lon="6.535">
        <ele>16.268734</ele>
        <time>2016-07-19T07:52:28Z</time>
      </trkpt>
      <trkpt lat="43.23648" lon="6.53446">
        <ele>15.6</ele>
        <time>2016-07-19T07:52:39Z</time>
      </trkpt>
      <trkpt lat="43.2363" lon="6.53392">
        <ele>15.352688</ele>
        <time>2016-07-19T07:52:51Z</time>
      </trkpt>
      <trkpt lat="43.23607" lon="6.53344">
        <ele>15.14786</ele>
        <time>2016-07-19T07:53:02Z</time>
      </trkpt>
      <trkpt lat="43.23585" lon="6.53289">
        <ele>15.978413</ele>
        <time>2016-07-19T07:53:14Z</time>
      </trkpt>
      <trkpt lat="43.23564" lon="6.5324">
        <ele>16.031641</ele>
        <time>2016-07-19T07:53:25Z</time>
      </trkpt>
      <trkpt lat="43.23538" lon="6.53192">
        <ele>16</ele>
        <time>2016-07-19T07:53:36Z</time>
      </trkpt>
      <trkpt lat="43.23499" lon="6.53161">
        <ele>16.042862</ele>
        <time>2016-07-19T07:53:48Z</time>
      </trkpt>
      <trkpt lat="43.23472" lon="6.53133">
        <ele>16</ele>
        <time>2016-07-19T07:54:02Z</time>
      </trkpt>
      <trkpt lat="43.23442" lon="6.53094">
        <ele>16</ele>
        <time>2016-07-19T07:54:16Z</time>
      </trkpt>
      <trkpt lat="43.23439" lon="6.5303">
        <ele>16.980503</ele>
        <time>2016-07-19T07:54:29Z</time>
      </trkpt>
      <trkpt lat="43.23439" lon="6.52965">
        <ele>17</ele>
        <time>2016-07-19T07:54:41Z</time>
      </trkpt>
      <trkpt lat="43.23427" lon="6.52913">
        <ele>17</ele>
        <time>2016-07-19T07:54:51Z</time>
      </trkpt>
      <trkpt lat="43.23401" lon="6.52863">
        <ele>17</ele>
        <time>2016-07-19T07:55:01Z</time>
      </trkpt>
      <trkpt lat="43.23373" lon="6.52821">
        <ele>17</ele>
        <time>2016-07-19T07:55:11Z</time>
      </trkpt>
      <trkpt lat="43.23345" lon="6.52779">
        <ele>17</ele>
        <time>2016-07-19T07:55:21Z</time>
      </trkpt>
      <trkpt lat="43.23316" lon="6.52737">
        <ele>17.0725</ele>
        <time>2016-07-19T07:55:31Z</time>
      </trkpt>
      <trkpt lat="43.23285" lon="6.52697">
        <ele>17.842051</ele>
        <time>2016-07-19T07:55:41Z</time>
      </trkpt>
      <trkpt lat="43.23253" lon="6.5266">
        <ele>18</ele>
        <time>2016-07-19T07:55:51Z</time>
      </trkpt>
      <trkpt lat="43.23219" lon="6.52622">
        <ele>18</ele>
        <time>2016-07-19T07:56:02Z</time>
      </trkpt>
      <trkpt lat="43.23189" lon="6.52581">
        <ele>18</ele>
        <time>2016-07-19T07:56:13Z</time>
      </trkpt>
      <trkpt lat="43.23151" lon="6.52579">
        <ele>18</ele>
        <time>2016-07-19T07:56:24Z</time>
      </trkpt>
      <trkpt lat="43.23109" lon="6.52582">
        <ele>18</ele>
        <time>2016-07-19T07:56:35Z</time>
      </trkpt>
      <trkpt lat="43.23082" lon="6.5254">
        <ele>18</ele>
        <time>2016-07-19T07:56:47Z</time>
      </trkpt>
      <trkpt lat="43.23054" lon="6.52481">
        <ele>18.520399</ele>
        <time>2016-07-19T07:56:58Z</time>
      </trkpt>
      <trkpt lat="43.23013" lon="6.52445">
        <ele>19</ele>
        <time>2016-07-19T07:57:08Z</time>
      </trkpt>
      <trkpt lat="43.22984" lon="6.52408">
        <ele>19</ele>
        <time>2016-07-19T07:57:18Z</time>
      </trkpt>
      <trkpt lat="43.22962" lon="6.52362">
        <ele>19</ele>
        <time>2016-07-19T07:57:28Z</time>
      </trkpt>
      <trkpt lat="43.22949" lon="6.52309">
        <ele>19</ele>
        <time>2016-07-19T07:57:39Z</time>
      </trkpt>
      <trkpt lat="43.22932" lon="6.52254">
        <ele>19</ele>
        <time>2016-07-19T07:57:50Z</time>
      </trkpt>
      <trkpt lat="43.22895" lon="6.52212">
        <ele>19</ele>
        <time>2016-07-19T07:58:00Z</time>
      </trkpt>
      <trkpt lat="43.22853" lon="6.52202">
        <ele>19</ele>
        <time>2016-07-19T07:58:09Z</time>
      </trkpt>
      <trkpt lat="43.2281" lon="6.522">
        <ele>18.793301</ele>
        <time>2016-07-19T07:58:20Z</time>
      </trkpt>
      <trkpt lat="43.22772" lon="6.52187">
        <ele>18.901251</ele>
        <time>2016-07-19T07:58:35Z</time>
      </trkpt>
      <trkpt lat="43.22735" lon="6.52156">
        <ele>19</ele>
        <time>2016-07-19T07:58:47Z</time>
      </trkpt>
      <trkpt lat="43.22715" lon="6.52103">
        <ele>18.996609</ele>
        <time>2016-07-19T07:59:00Z</time>
      </trkpt>
      <trkpt lat="43.22714" lon="6.52048">
        <ele>19.084999</ele>
        <time>2016-07-19T07:59:09Z</time>
      </trkpt>
      <trkpt lat="43.22705" lon="6.51992">
        <ele>19.59</ele>
        <time>2016-07-19T07:59:18Z</time>
      </trkpt>
      <trkpt lat="43.227" lon="6.51936">
        <ele>19.401894</ele>
        <time>2016-07-19T07:59:28Z</time>
      </trkpt>
      <trkpt lat="43.2272" lon="6.51882">
        <ele>18.27495</ele>
        <time>2016-07-19T07:59:37Z</time>
      </trkpt>
      <trkpt lat="43.22735" lon="6.51827">
        <ele>18.538515</ele>
        <time>2016-07-19T07:59:46Z</time>
      </trkpt>
      <trkpt lat="43.22749" lon="6.5177">
        <ele>18.819374</ele>
        <time>2016-07-19T07:59:55Z</time>
      </trkpt>
      <trkpt lat="43.22755" lon="6.51713">
        <ele>19.106712</ele>
        <time>2016-07-19T08:00:07Z</time>
      </trkpt>
      <trkpt lat="43.22758" lon="6.51658">
        <ele>19.436016</ele>
        <time>2016-07-19T08:00:18Z</time>
      </trkpt>
      <trkpt lat="43.22764" lon="6.51601">
        <ele>19.590769</ele>
        <time>2016-07-19T08:00:28Z</time>
      </trkpt>
      <trkpt lat="43.22758" lon="6.51543">
        <ele>20.306973</ele>
        <time>2016-07-19T08:00:40Z</time>
      </trkpt>
      <trkpt lat="43.22758" lon="6.51485">
        <ele>19.958202</ele>
        <time>2016-07-19T08:00:54Z</time>
      </trkpt>
      <trkpt lat="43.22741" lon="6.51428">
        <ele>19.801109</ele>
        <time>2016-07-19T08:01:06Z</time>
      </trkpt>
      <trkpt lat="43.22714" lon="6.51374">
        <ele>18.977863</ele>
        <time>2016-07-19T08:01:18Z</time>
      </trkpt>
      <trkpt lat="43.22682" lon="6.51333">
        <ele>18.579813</ele>
        <time>2016-07-19T08:01:29Z</time>
      </trkpt>
      <trkpt lat="43.22646" lon="6.51302">
        <ele>19.195</ele>
        <time>2016-07-19T08:01:41Z</time>
      </trkpt>
      <trkpt lat="43.22611" lon="6.5127">
        <ele>20.002218</ele>
        <time>2016-07-19T08:01:55Z</time>
      </trkpt>
      <trkpt lat="43.2257" lon="6.51248">
        <ele>19.303062</ele>
        <time>2016-07-19T08:02:05Z</time>
      </trkpt>
      <trkpt lat="43.22527" lon="6.51225">
        <ele>19.463337</ele>
        <time>2016-07-19T08:02:17Z</time>
      </trkpt>
      <trkpt lat="43.22486" lon="6.51207">
        <ele>20.321312</ele>
        <time>2016-07-19T08:02:28Z</time>
      </trkpt>
      <trkpt lat="43.22448" lon="6.51177">
        <ele>20.62125</ele>
        <time>2016-07-19T08:02:38Z</time>
      </trkpt>
      <trkpt lat="43.22417" lon="6.51134">
        <ele>20.629637</ele>
        <time>2016-07-19T08:02:49Z</time>
      </trkpt>
      <trkpt lat="43.22388" lon="6.5109">
        <ele>19.919287</ele>
        <time>2016-07-19T08:03:00Z</time>
      </trkpt>
      <trkpt lat="43.22364" lon="6.51045">
        <ele>19.048</ele>
        <time>2016-07-19T08:03:12Z</time>
      </trkpt>
      <trkpt lat="43.22339" lon="6.50997">
        <ele>18.27125</ele>
        <time>2016-07-19T08:03:22Z</time>
      </trkpt>
      <trkpt lat="43.22308" lon="6.50956">
        <ele>18.02</ele>
        <time>2016-07-19T08:03:35Z</time>
      </trkpt>
      <trkpt lat="43.22277" lon="6.50918">
        <ele>19.450001</ele>
        <time>2016-07-19T08:03:51Z</time>
      </trkpt>
      <trkpt lat="43.22242" lon="6.50876">
        <ele>20.73036</ele>
        <time>2016-07-19T08:04:05Z</time>
      </trkpt>
      <trkpt lat="43.22206" lon="6.50835">
        <ele>22.386551</ele>
        <time>2016-07-19T08:04:16Z</time>
      </trkpt>
      <trkpt lat="43.22166" lon="6.50804">
        <ele>24.118</ele>
        <time>2016-07-19T08:04:24Z</time>
      </trkpt>
      <trkpt lat="43.22125" lon="6.50777">
        <ele>25.873276</ele>
        <time>2016-07-19T08:04:35Z</time>
      </trkpt>
      <trkpt lat="43.2208" lon="6.50759">
        <ele>28.457663</ele>
        <time>2016-07-19T08:04:44Z</time>
      </trkpt>
      <trkpt lat="43.22039" lon="6.50732">
        <ele>28.181812</ele>
        <time>2016-07-19T08:04:52Z</time>
      </trkpt>
      <trkpt lat="43.21998" lon="6.50693">
        <ele>25.0476</ele>
        <time>2016-07-19T08:05:01Z</time>
      </trkpt>
      <trkpt lat="43.21946" lon="6.50671">
        <ele>24.857063</ele>
        <time>2016-07-19T08:05:11Z</time>
      </trkpt>
      <trkpt lat="43.219" lon="6.50657">
        <ele>26.74</ele>
        <time>2016-07-19T08:05:18Z</time>
      </trkpt>
      <trkpt lat="43.21858" lon="6.50641">
        <ele>27.121515</ele>
        <time>2016-07-19T08:05:26Z</time>
      </trkpt>
      <trkpt lat="43.21813" lon="6.50627">
        <ele>24.851303</ele>
        <time>2016-07-19T08:05:37Z</time>
      </trkpt>
      <trkpt lat="43.21772" lon="6.506">
        <ele>25.160112</ele>
        <time>2016-07-19T08:05:47Z</time>
      </trkpt>
      <trkpt lat="43.21735" lon="6.50573">
        <ele>25.750425</ele>
        <time>2016-07-19T08:05:57Z</time>
      </trkpt>
      <trkpt lat="43.217" lon="6.50545">
        <ele>26.174475</ele>
        <time>2016-07-19T08:06:07Z</time>
      </trkpt>
      <trkpt lat="43.21667" lon="6.50513">
        <ele>26.109875</ele>
        <time>2016-07-19T08:06:17Z</time>
      </trkpt>
      <trkpt lat="43.21636" lon="6.50477">
        <ele>25.8416</ele>
        <time>2016-07-19T08:06:28Z</time>
      </trkpt>
      <trkpt lat="43.21605" lon="6.50443">
        <ele>25.7239</ele>
        <time>2016-07-19T08:06:38Z</time>
      </trkpt>
      <trkpt lat="43.21576" lon="6.5041">
        <ele>26.6173</ele>
        <time>2016-07-19T08:06:50Z</time>
      </trkpt>
      <trkpt lat="43.21539" lon="6.50395">
        <ele>28.934462</ele>
        <time>2016-07-19T08:07:10Z</time>
      </trkpt>
      <trkpt lat="43.21499" lon="6.50396">
        <ele>31.864788</ele>
        <time>2016-07-19T08:07:25Z</time>
      </trkpt>
      <trkpt lat="43.21467" lon="6.50433">
        <ele>36.705376</ele>
        <time>2016-07-19T08:07:38Z</time>
      </trkpt>
      <trkpt lat="43.21447" lon="6.50485">
        <ele>39.202499</ele>
        <time>2016-07-19T08:07:49Z</time>
      </trkpt>
      <trkpt lat="43.21416" lon="6.50458">
        <ele>39.433914</ele>
        <time>2016-07-19T08:08:08Z</time>
      </trkpt>
      <trkpt lat="43.21407" lon="6.50399">
        <ele>40.025063</ele>
        <time>2016-07-19T08:08:34Z</time>
      </trkpt>
      <trkpt lat="43.21395" lon="6.50349">
        <ele>39.617626</ele>
        <time>2016-07-19T08:08:56Z</time>
      </trkpt>
      <trkpt lat="43.21358" lon="6.50334">
        <ele>45.66058</ele>
        <time>2016-07-19T08:09:17Z</time>
      </trkpt>
      <trkpt lat="43.2135" lon="6.50272">
        <ele>39.75182</ele>
        <time>2016-07-19T08:09:27Z</time>
      </trkpt>
      <trkpt lat="43.21337" lon="6.50218">
        <ele>32.950474</ele>
        <time>2016-07-19T08:09:33Z</time>
      </trkpt>
      <trkpt lat="43.2131" lon="6.50176">
        <ele>27.567801</ele>
        <time>2016-07-19T08:09:38Z</time>
      </trkpt>
      <trkpt lat="43.21272" lon="6.50167">
        <ele>23.546562</ele>
        <time>2016-07-19T08:09:46Z</time>
      </trkpt>
      <trkpt lat="43.2124" lon="6.50176">
        <ele>27.860506</ele>
        <time>2016-07-19T08:09:56Z</time>
      </trkpt>
      <trkpt lat="43.2121" lon="6.50128">
        <ele>27.912468</ele>
        <time>2016-07-19T08:10:13Z</time>
      </trkpt>
      <trkpt lat="43.21168" lon="6.50103">
        <ele>30.731701</ele>
        <time>2016-07-19T08:10:25Z</time>
      </trkpt>
      <trkpt lat="43.2113" lon="6.50082">
        <ele>34.937977</ele>
        <time>2016-07-19T08:10:34Z</time>
      </trkpt>
      <trkpt lat="43.21103" lon="6.50039">
        <ele>32.014954</ele>
        <time>2016-07-19T08:10:45Z</time>
      </trkpt>
      <trkpt lat="43.21075" lon="6.49991">
        <ele>31.126186</ele>
        <time>2016-07-19T08:10:56Z</time>
      </trkpt>
      <trkpt lat="43.21063" lon="6.49934">
        <ele>26.188225</ele>
        <time>2016-07-19T08:11:08Z</time>
      </trkpt>
      <trkpt lat="43.21022" lon="6.49921">
        <ele>31.21172</ele>
        <time>2016-07-19T08:11:18Z</time>
      </trkpt>
      <trkpt lat="43.21034" lon="6.49874">
        <ele>28.0126</ele>
        <time>2016-07-19T08:11:32Z</time>
      </trkpt>
      <trkpt lat="43.21038" lon="6.49814">
        <ele>28.809219</ele>
        <time>2016-07-19T08:11:45Z</time>
      </trkpt>
      <trkpt lat="43.21012" lon="6.49766">
        <ele>35.119999</ele>
        <time>2016-07-19T08:11:58Z</time>
      </trkpt>
      <trkpt lat="43.20996" lon="6.49713">
        <ele>36.189461</ele>
        <time>2016-07-19T08:12:12Z</time>
      </trkpt>
      <trkpt lat="43.20976" lon="6.49663">
        <ele>36.303051</ele>
        <time>2016-07-19T08:12:23Z</time>
      </trkpt>
      <trkpt lat="43.20939" lon="6.49636">
        <ele>33.025002</ele>
        <time>2016-07-19T08:12:34Z</time>
      </trkpt>
      <trkpt lat="43.20898" lon="6.49635">
        <ele>30.251396</ele>
        <time>2016-07-19T08:12:44Z</time>
      </trkpt>
      <trkpt lat="43.20884" lon="6.49606">
        <ele>28.060019</ele>
        <time>2016-07-19T08:12:54Z</time>
      </trkpt>
      <trkpt lat="43.20907" lon="6.4956">
        <ele>27.302494</ele>
        <time>2016-07-19T08:13:01Z</time>
      </trkpt>
      <trkpt lat="43.20942" lon="6.49521">
        <ele>24.871012</ele>
        <time>2016-07-19T08:13:17Z</time>
      </trkpt>
      <trkpt lat="43.20975" lon="6.49484">
        <ele>22.880287</ele>
        <time>2016-07-19T08:13:28Z</time>
      </trkpt>
      <trkpt lat="43.20952" lon="6.49489">
        <ele>24.845375</ele>
        <time>2016-07-19T08:13:53Z</time>
      </trkpt>
      <trkpt lat="43.20954" lon="6.495">
        <ele>24.176119</ele>
        <time>2016-07-19T08:15:15Z</time>
      </trkpt>
      <trkpt lat="43.20917" lon="6.49522">
        <ele>28.034849</ele>
        <time>2016-07-19T08:15:33Z</time>
      </trkpt>
      <trkpt lat="43.20885" lon="6.49563">
        <ele>28.990421</ele>
        <time>2016-07-19T08:15:47Z</time>
      </trkpt>
      <trkpt lat="43.20858" lon="6.49607">
        <ele>31.876356</ele>
        <time>2016-07-19T08:16:02Z</time>
      </trkpt>
      <trkpt lat="43.20849" lon="6.49664">
        <ele>33.011242</ele>
        <time>2016-07-19T08:16:19Z</time>
      </trkpt>
      <trkpt lat="43.20824" lon="6.49713">
        <ele>33.56673</ele>
        <time>2016-07-19T08:16:41Z</time>
      </trkpt>
      <trkpt lat="43.20793" lon="6.49755">
        <ele>36.88625</ele>
        <time>2016-07-19T08:17:01Z</time>
      </trkpt>
      <trkpt lat="43.20817" lon="6.49729">
        <ele>34.6427</ele>
        <time>2016-07-19T08:18:46Z</time>
      </trkpt>
      <trkpt lat="43.20839" lon="6.4968">
        <ele>33.724865</ele>
        <time>2016-07-19T08:19:00Z</time>
      </trkpt>
      <trkpt lat="43.20846" lon="6.49625">
        <ele>34.024689</ele>
        <time>2016-07-19T08:19:14Z</time>
      </trkpt>
      <trkpt lat="43.20869" lon="6.49575">
        <ele>30.355625</ele>
        <time>2016-07-19T08:19:27Z</time>
      </trkpt>
      <trkpt lat="43.20901" lon="6.4953">
        <ele>29.659344</ele>
        <time>2016-07-19T08:19:41Z</time>
      </trkpt>
      <trkpt lat="43.2094" lon="6.49513">
        <ele>25.276449</ele>
        <time>2016-07-19T08:19:52Z</time>
      </trkpt>
      <trkpt lat="43.20975" lon="6.49478">
        <ele>23.220299</ele>
        <time>2016-07-19T08:19:59Z</time>
      </trkpt>
      <trkpt lat="43.21011" lon="6.49454">
        <ele>21.3825</ele>
        <time>2016-07-19T08:20:09Z</time>
      </trkpt>
      <trkpt lat="43.21054" lon="6.49442">
        <ele>19.395</ele>
        <time>2016-07-19T08:20:18Z</time>
      </trkpt>
      <trkpt lat="43.21042" lon="6.49414">
        <ele>19.98</ele>
        <time>2016-07-19T08:20:50Z</time>
      </trkpt>
      <trkpt lat="43.21007" lon="6.49384">
        <ele>21.402613</ele>
        <time>2016-07-19T08:21:00Z</time>
      </trkpt>
      <trkpt lat="43.20972" lon="6.49351">
        <ele>22.363951</ele>
        <time>2016-07-19T08:21:11Z</time>
      </trkpt>
      <trkpt lat="43.2094" lon="6.49318">
        <ele>21.684999</ele>
        <time>2016-07-19T08:21:21Z</time>
      </trkpt>
      <trkpt lat="43.20908" lon="6.49284">
        <ele>21.452499</ele>
        <time>2016-07-19T08:21:33Z</time>
      </trkpt>
      <trkpt lat="43.20875" lon="6.4925">
        <ele>21.559937</ele>
        <time>2016-07-19T08:21:44Z</time>
      </trkpt>
      <trkpt lat="43.2084" lon="6.49221">
        <ele>22.868788</ele>
        <time>2016-07-19T08:21:54Z</time>
      </trkpt>
      <trkpt lat="43.20802" lon="6.49206">
        <ele>25.915062</ele>
        <time>2016-07-19T08:22:05Z</time>
      </trkpt>
      <trkpt lat="43.20776" lon="6.49158">
        <ele>24.877501</ele>
        <time>2016-07-19T08:22:18Z</time>
      </trkpt>
      <trkpt lat="43.20749" lon="6.49111">
        <ele>24.624147</ele>
        <time>2016-07-19T08:22:29Z</time>
      </trkpt>
      <trkpt lat="43.20724" lon="6.49064">
        <ele>25.32375</ele>
        <time>2016-07-19T08:22:43Z</time>
      </trkpt>
      <trkpt lat="43.20698" lon="6.49022">
        <ele>26.952499</ele>
        <time>2016-07-19T08:22:56Z</time>
      </trkpt>
      <trkpt lat="43.20674" lon="6.48972">
        <ele>27.06875</ele>
        <time>2016-07-19T08:23:09Z</time>
      </trkpt>
      <trkpt lat="43.2066" lon="6.48921">
        <ele>25.489731</ele>
        <time>2016-07-19T08:23:22Z</time>
      </trkpt>
      <trkpt lat="43.20628" lon="6.48892">
        <ele>25.366899</ele>
        <time>2016-07-19T08:23:32Z</time>
      </trkpt>
      <trkpt lat="43.20592" lon="6.48863">
        <ele>25.205162</ele>
        <time>2016-07-19T08:23:44Z</time>
      </trkpt>
      <trkpt lat="43.20569" lon="6.48818">
        <ele>25.507843</ele>
        <time>2016-07-19T08:23:55Z</time>
      </trkpt>
      <trkpt lat="43.20545" lon="6.48772">
        <ele>28.216249</ele>
        <time>2016-07-19T08:24:09Z</time>
      </trkpt>
      <trkpt lat="43.20523" lon="6.48727">
        <ele>30.3811</ele>
        <time>2016-07-19T08:24:22Z</time>
      </trkpt>
      <trkpt lat="43.20501" lon="6.48676">
        <ele>30.82443</ele>
        <time>2016-07-19T08:24:35Z</time>
      </trkpt>
      <trkpt lat="43.20474" lon="6.48635">
        <ele>31.285307</ele>
        <time>2016-07-19T08:24:47Z</time>
      </trkpt>
      <trkpt lat="43.20455" lon="6.48583">
        <ele>29.054432</ele>
        <time>2016-07-19T08:24:58Z</time>
      </trkpt>
      <trkpt lat="43.20415" lon="6.48561">
        <ele>30.059891</ele>
        <time>2016-07-19T08:25:08Z</time>
      </trkpt>
      <trkpt lat="43.20387" lon="6.48518">
        <ele>29.785801</ele>
        <time>2016-07-19T08:25:16Z</time>
      </trkpt>
      <trkpt lat="43.20357" lon="6.48476">
        <ele>33.209953</ele>
        <time>2016-07-19T08:25:25Z</time>
      </trkpt>
      <trkpt lat="43.2033" lon="6.48428">
        <ele>34.131828</ele>
        <time>2016-07-19T08:25:37Z</time>
      </trkpt>
      <trkpt lat="43.20312" lon="6.48376">
        <ele>36.222984</ele>
        <time>2016-07-19T08:25:48Z</time>
      </trkpt>
      <trkpt lat="43.20285" lon="6.48323">
        <ele>35.997501</ele>
        <time>2016-07-19T08:25:59Z</time>
      </trkpt>
      <trkpt lat="43.20271" lon="6.48263">
        <ele>36.1572</ele>
        <time>2016-07-19T08:26:10Z</time>
      </trkpt>
      <trkpt lat="43.2026" lon="6.482">
        <ele>33.357243</ele>
        <time>2016-07-19T08:26:22Z</time>
      </trkpt>
      <trkpt lat="43.20252" lon="6.48141">
        <ele>29.32</ele>
        <time>2016-07-19T08:26:34Z</time>
      </trkpt>
      <trkpt lat="43.20237" lon="6.48091">
        <ele>28.261984</ele>
        <time>2016-07-19T08:26:48Z</time>
      </trkpt>
      <trkpt lat="43.20208" lon="6.4805">
        <ele>28.200001</ele>
        <time>2016-07-19T08:27:00Z</time>
      </trkpt>
      <trkpt lat="43.20184" lon="6.48004">
        <ele>28.775</ele>
        <time>2016-07-19T08:27:12Z</time>
      </trkpt>
      <trkpt lat="43.20157" lon="6.47957">
        <ele>29.56296</ele>
        <time>2016-07-19T08:27:23Z</time>
      </trkpt>
      <trkpt lat="43.20148" lon="6.47903">
        <ele>29.350163</ele>
        <time>2016-07-19T08:27:34Z</time>
      </trkpt>
      <trkpt lat="43.20141" lon="6.47845">
        <ele>29</ele>
        <time>2016-07-19T08:27:46Z</time>
      </trkpt>
      <trkpt lat="43.2013" lon="6.4779">
        <ele>29</ele>
        <time>2016-07-19T08:27:52Z</time>
      </trkpt>
      <trkpt lat="43.20136" lon="6.47732">
        <ele>29</ele>
        <time>2016-07-19T08:27:58Z</time>
      </trkpt>
      <trkpt lat="43.20145" lon="6.47669">
        <ele>29.061462</ele>
        <time>2016-07-19T08:28:05Z</time>
      </trkpt>
      <trkpt lat="43.20147" lon="6.47607">
        <ele>29</ele>
        <time>2016-07-19T08:28:14Z</time>
      </trkpt>
      <trkpt lat="43.20159" lon="6.47556">
        <ele>29</ele>
        <time>2016-07-19T08:28:25Z</time>
      </trkpt>
      <trkpt lat="43.20162" lon="6.47497">
        <ele>29</ele>
        <time>2016-07-19T08:28:33Z</time>
      </trkpt>
      <trkpt lat="43.20142" lon="6.47446">
        <ele>29</ele>
        <time>2016-07-19T08:28:42Z</time>
      </trkpt>
      <trkpt lat="43.20133" lon="6.47393">
        <ele>29</ele>
        <time>2016-07-19T08:28:57Z</time>
      </trkpt>
      <trkpt lat="43.2017" lon="6.47383">
        <ele>29</ele>
        <time>2016-07-19T08:29:14Z</time>
      </trkpt>
      <trkpt lat="43.20215" lon="6.4739">
        <ele>29.04668</ele>
        <time>2016-07-19T08:29:27Z</time>
      </trkpt>
      <trkpt lat="43.20255" lon="6.47395">
        <ele>29.414291</ele>
        <time>2016-07-19T08:29:37Z</time>
      </trkpt>
      <trkpt lat="43.20294" lon="6.4741">
        <ele>30.2178</ele>
        <time>2016-07-19T08:29:52Z</time>
      </trkpt>
      <trkpt lat="43.20329" lon="6.47433">
        <ele>31.626553</ele>
        <time>2016-07-19T08:30:08Z</time>
      </trkpt>
      <trkpt lat="43.20374" lon="6.4744">
        <ele>31.995668</ele>
        <time>2016-07-19T08:30:27Z</time>
      </trkpt>
      <trkpt lat="43.20402" lon="6.47412">
        <ele>32</ele>
        <time>2016-07-19T08:30:38Z</time>
      </trkpt>
      <trkpt lat="43.20417" lon="6.47363">
        <ele>32</ele>
        <time>2016-07-19T08:30:48Z</time>
      </trkpt>
      <trkpt lat="43.20433" lon="6.47308">
        <ele>31.906925</ele>
        <time>2016-07-19T08:30:59Z</time>
      </trkpt>
      <trkpt lat="43.20445" lon="6.47255">
        <ele>31.657499</ele>
        <time>2016-07-19T08:31:11Z</time>
      </trkpt>
      <trkpt lat="43.20451" lon="6.47199">
        <ele>31</ele>
        <time>2016-07-19T08:31:23Z</time>
      </trkpt>
      <trkpt lat="43.20459" lon="6.4714">
        <ele>30.780001</ele>
        <time>2016-07-19T08:31:33Z</time>
      </trkpt>
      <trkpt lat="43.20468" lon="6.47083">
        <ele>30</ele>
        <time>2016-07-19T08:31:43Z</time>
      </trkpt>
      <trkpt lat="43.20476" lon="6.4703">
        <ele>29.977751</ele>
        <time>2016-07-19T08:31:54Z</time>
      </trkpt>
      <trkpt lat="43.20484" lon="6.46976">
        <ele>29.0875</ele>
        <time>2016-07-19T08:32:06Z</time>
      </trkpt>
      <trkpt lat="43.20493" lon="6.4692">
        <ele>29</ele>
        <time>2016-07-19T08:32:16Z</time>
      </trkpt>
      <trkpt lat="43.205" lon="6.46864">
        <ele>28.248751</ele>
        <time>2016-07-19T08:32:26Z</time>
      </trkpt>
      <trkpt lat="43.20509" lon="6.4681">
        <ele>28</ele>
        <time>2016-07-19T08:32:36Z</time>
      </trkpt>
      <trkpt lat="43.20513" lon="6.46756">
        <ele>28.280218</ele>
        <time>2016-07-19T08:32:49Z</time>
      </trkpt>
      <trkpt lat="43.20833" lon="6.46461">
        <ele>29.402922</ele>
        <time>2016-07-19T08:33:03Z</time>
      </trkpt>
      <trkpt lat="43.21113" lon="6.46069">
        <ele>41.7075</ele>
      </trkpt>
      <trkpt lat="43.21338" lon="6.46365">
        <ele>46.980217</ele>
      </trkpt>
      <trkpt lat="43.21438" lon="6.46557">
        <ele>49.262318</ele>
      </trkpt>
      <trkpt lat="43.21501" lon="6.46564">
        <ele>53.629681</ele>
      </trkpt>
      <trkpt lat="43.21609" lon="6.46492">
        <ele>53.952499</ele>
      </trkpt>
      <trkpt lat="43.21772" lon="6.46406">
        <ele>52.2775</ele>
      </trkpt>
      <trkpt lat="43.2182" lon="6.46332">
        <ele>56.78759</ele>
      </trkpt>
      <trkpt lat="43.21937" lon="6.4627">
        <ele>54.762112</ele>
      </trkpt>
      <trkpt lat="43.22049" lon="6.46176">
        <ele>53.071556</ele>
      </trkpt>
      <trkpt lat="43.22141" lon="6.45992">
        <ele>56.559517</ele>
      </trkpt>
      <trkpt lat="43.22278" lon="6.45774">
        <ele>60.729897</ele>
      </trkpt>
      <trkpt lat="43.22267" lon="6.45657">
        <ele>70.272743</ele>
      </trkpt>
      <trkpt lat="43.22362" lon="6.45528">
        <ele>68.109276</ele>
      </trkpt>
      <trkpt lat="43.22421" lon="6.45493">
        <ele>69.438889</ele>
      </trkpt>
      <trkpt lat="43.2249" lon="6.45356">
        <ele>73.142113</ele>
      </trkpt>
      <trkpt lat="43.22488" lon="6.45288">
        <ele>81.017982</ele>
      </trkpt>
      <trkpt lat="43.22517" lon="6.45238">
        <ele>82.261192</ele>
      </trkpt>
      <trkpt lat="43.22648" lon="6.45207">
        <ele>84.8302</ele>
      </trkpt>
      <trkpt lat="43.22666" lon="6.45153">
        <ele>85.229828</ele>
      </trkpt>
      <trkpt lat="43.22616" lon="6.45057">
        <ele>88.568748</ele>
      </trkpt>
      <trkpt lat="43.22557" lon="6.44958">
        <ele>90.474594</ele>
      </trkpt>
      <trkpt lat="43.22542" lon="6.44815">
        <ele>98.955002</ele>
      </trkpt>
      <trkpt lat="43.22602" lon="6.44724">
        <ele>96.061722</ele>
      </trkpt>
      <trkpt lat="43.22599" lon="6.44604">
        <ele>93.542595</ele>
      </trkpt>
      <trkpt lat="43.22622" lon="6.44427">
        <ele>103.911163</ele>
      </trkpt>
      <trkpt lat="43.22679" lon="6.44336">
        <ele>99.91468</ele>
      </trkpt>
      <trkpt lat="43.22669" lon="6.44252">
        <ele>108.393753</ele>
      </trkpt>
      <trkpt lat="43.22517" lon="6.44045">
        <ele>100.619362</ele>
      </trkpt>
      <trkpt lat="43.22518" lon="6.43909">
        <ele>103.172417</ele>
      </trkpt>
      <trkpt lat="43.22679" lon="6.43948">
        <ele>97.091698</ele>
      </trkpt>
      <trkpt lat="43.22758" lon="6.43809">
        <ele>103.574966</ele>
      </trkpt>
      <trkpt lat="43.22779" lon="6.43669">
        <ele>106.496162</ele>
      </trkpt>
      <trkpt lat="43.2287" lon="6.43701">
        <ele>98.347717</ele>
      </trkpt>
      <trkpt lat="43.22983" lon="6.43644">
        <ele>95.43042</ele>
      </trkpt>
      <trkpt lat="43.23007" lon="6.43298">
        <ele>100.145226</ele>
      </trkpt>
      <trkpt lat="43.23078" lon="6.43196">
        <ele>95.234207</ele>
      </trkpt>
      <trkpt lat="43.23055" lon="6.43105">
        <ele>109.696785</ele>
      </trkpt>
      <trkpt lat="43.23146" lon="6.43068">
        <ele>86.550903</ele>
      </trkpt>
      <trkpt lat="43.23182" lon="6.42726">
        <ele>92.443275</ele>
      </trkpt>
      <trkpt lat="43.23124" lon="6.42701">
        <ele>104.140366</ele>
      </trkpt>
      <trkpt lat="43.23096" lon="6.42449">
        <ele>101.601532</ele>
      </trkpt>
      <trkpt lat="43.23402" lon="6.42733">
        <ele>89.57766</ele>
      </trkpt>
      <trkpt lat="43.23693" lon="6.42584">
        <ele>92.433472</ele>
      </trkpt>
      <trkpt lat="43.23584" lon="6.42318">
        <ele>112.878159</ele>
      </trkpt>
      <trkpt lat="43.23691" lon="6.41812">
        <ele>97.436302</ele>
      </trkpt>
      <trkpt lat="43.23821" lon="6.41824">
        <ele>99.010284</ele>
      </trkpt>
      <trkpt lat="43.23899" lon="6.41599">
        <ele>105.488686</ele>
      </trkpt>
      <trkpt lat="43.23914" lon="6.41394">
        <ele>112.498085</ele>
      </trkpt>
      <trkpt lat="43.23952" lon="6.41329">
        <ele>116.121391</ele>
      </trkpt>
      <trkpt lat="43.24003" lon="6.41299">
        <ele>113.355141</ele>
      </trkpt>
      <trkpt lat="43.23989" lon="6.41267">
        <ele>124.596703</ele>
      </trkpt>
      <trkpt lat="43.23877" lon="6.41305">
        <ele>138.892227</ele>
      </trkpt>
      <trkpt lat="43.23771" lon="6.4171">
        <ele>143.932297</ele>
      </trkpt>
      <trkpt lat="43.23637" lon="6.41639">
        <ele>178.360687</ele>
      </trkpt>
      <trkpt lat="43.23553" lon="6.41774">
        <ele>171.489609</ele>
      </trkpt>
      <trkpt lat="43.23469" lon="6.42036">
        <ele>190.96553</ele>
      </trkpt>
      <trkpt lat="43.23439" lon="6.42123">
        <ele>203.322952</ele>
      </trkpt>
      <trkpt lat="43.23458" lon="6.41964">
        <ele>213.849106</ele>
      </trkpt>
      <trkpt lat="43.23413" lon="6.42035">
        <ele>227.279587</ele>
      </trkpt>
      <trkpt lat="43.23382" lon="6.4219">
        <ele>235.234299</ele>
      </trkpt>
      <trkpt lat="43.234" lon="6.41899">
        <ele>250.125824</ele>
      </trkpt>
      <trkpt lat="43.23323" lon="6.42152">
        <ele>262.658997</ele>
      </trkpt>
      <trkpt lat="43.23341" lon="6.41919">
        <ele>274.521423</ele>
      </trkpt>
      <trkpt lat="43.23217" lon="6.41852">
        <ele>289.368469</ele>
      </trkpt>
      <trkpt lat="43.2318" lon="6.41705">
        <ele>286.64624</ele>
      </trkpt>
      <trkpt lat="43.22911" lon="6.41458">
        <ele>320.628571</ele>
      </trkpt>
      <trkpt lat="43.22929" lon="6.41235">
        <ele>326.600372</ele>
      </trkpt>
      <trkpt lat="43.22931" lon="6.41057">
        <ele>345.134338</ele>
      </trkpt>
      <trkpt lat="43.23033" lon="6.41101">
        <ele>338.83139</ele>
      </trkpt>
      <trkpt lat="43.23062" lon="6.41047">
        <ele>348.941193</ele>
      </trkpt>
      <trkpt lat="43.23098" lon="6.40939">
        <ele>355.803802</ele>
      </trkpt>
      <trkpt lat="43.23178" lon="6.41068">
        <ele>365.885529</ele>
      </trkpt>
      <trkpt lat="43.23338" lon="6.41135">
        <ele>375.528473</ele>
      </trkpt>
      <trkpt lat="43.23551" lon="6.40959">
        <ele>379.172913</ele>
      </trkpt>
      <trkpt lat="43.23615" lon="6.40816">
        <ele>381.470276</ele>
      </trkpt>
      <trkpt lat="43.23482" lon="6.40665">
        <ele>389.498627</ele>
      </trkpt>
      <trkpt lat="43.23387" lon="6.40547">
        <ele>396.257965</ele>
      </trkpt>
      <trkpt lat="43.23439" lon="6.40471">
        <ele>391.770264</ele>
      </trkpt>
      <trkpt lat="43.23403" lon="6.40241">
        <ele>410.376068</ele>
      </trkpt>
      <trkpt lat="43.23489" lon="6.40136">
        <ele>420.96109</ele>
      </trkpt>
      <trkpt lat="43.23487" lon="6.40065">
        <ele>430.394287</ele>
      </trkpt>
      <trkpt lat="43.23421" lon="6.39928">
        <ele>432.334503</ele>
      </trkpt>
      <trkpt lat="43.2342" lon="6.3971">
        <ele>437.62558</ele>
      </trkpt>
      <trkpt lat="43.23392" lon="6.39677">
        <ele>448.307648</ele>
      </trkpt>
      <trkpt lat="43.23309" lon="6.3949">
        <ele>466.03183</ele>
      </trkpt>
      <trkpt lat="43.23224" lon="6.39425">
        <ele>481.318054</ele>
      </trkpt>
      <trkpt lat="43.23222" lon="6.39401">
        <ele>481.100372</ele>
      </trkpt>
      <trkpt lat="43.23144" lon="6.39333">
        <ele>495.51059</ele>
      </trkpt>
      <trkpt lat="43.23078" lon="6.39175">
        <ele>510.372314</ele>
      </trkpt>
      <trkpt lat="43.23022" lon="6.38823">
        <ele>501.217041</ele>
      </trkpt>
      <trkpt lat="43.22953" lon="6.3872">
        <ele>492.200287</ele>
      </trkpt>
      <trkpt lat="43.22935" lon="6.3855">
        <ele>490.228882</ele>
      </trkpt>
      <trkpt lat="43.22886" lon="6.38429">
        <ele>478.331696</ele>
      </trkpt>
      <trkpt lat="43.22933" lon="6.38414">
        <ele>486.796692</ele>
      </trkpt>
      <trkpt lat="43.22984" lon="6.38276">
        <ele>476.119293</ele>
      </trkpt>
      <trkpt lat="43.23078" lon="6.38031">
        <ele>466.580231</ele>
      </trkpt>
      <trkpt lat="43.23081" lon="6.37911">
        <ele>452.736267</ele>
      </trkpt>
      <trkpt lat="43.23128" lon="6.3785">
        <ele>454.619476</ele>
      </trkpt>
      <trkpt lat="43.23127" lon="6.37514">
        <ele>435.091064</ele>
      </trkpt>
      <trkpt lat="43.23182" lon="6.37417">
        <ele>429.071838</ele>
      </trkpt>
      <trkpt lat="43.23325" lon="6.37341">
        <ele>421.954773</ele>
      </trkpt>
      <trkpt lat="43.23089" lon="6.37386">
        <ele>404.440125</ele>
      </trkpt>
      <trkpt lat="43.23029" lon="6.37563">
        <ele>394.855011</ele>
      </trkpt>
      <trkpt lat="43.23045" lon="6.37355">
        <ele>383.291443</ele>
      </trkpt>
      <trkpt lat="43.23101" lon="6.37254">
        <ele>378.605103</ele>
      </trkpt>
      <trkpt lat="43.23193" lon="6.37257">
        <ele>374.451141</ele>
      </trkpt>
      <trkpt lat="43.23228" lon="6.3722">
        <ele>377.249298</ele>
      </trkpt>
      <trkpt lat="43.23164" lon="6.3724">
        <ele>368.291321</ele>
      </trkpt>
      <trkpt lat="43.23103" lon="6.37196">
        <ele>358.794189</ele>
      </trkpt>
      <trkpt lat="43.23041" lon="6.37244">
        <ele>354.264099</ele>
      </trkpt>
      <trkpt lat="43.22983" lon="6.37403">
        <ele>355.410797</ele>
      </trkpt>
      <trkpt lat="43.22911" lon="6.37644">
        <ele>351.045258</ele>
      </trkpt>
      <trkpt lat="43.22824" lon="6.37739">
        <ele>341.679413</ele>
      </trkpt>
      <trkpt lat="43.2275" lon="6.37792">
        <ele>341.78894</ele>
      </trkpt>
      <trkpt lat="43.22866" lon="6.37274">
        <ele>352.422668</ele>
      </trkpt>
      <trkpt lat="43.22883" lon="6.37236">
        <ele>346.032776</ele>
      </trkpt>
      <trkpt lat="43.22891" lon="6.37144">
        <ele>350.236298</ele>
      </trkpt>
      <trkpt lat="43.2295" lon="6.37022">
        <ele>352.782654</ele>
      </trkpt>
      <trkpt lat="43.23067" lon="6.36886">
        <ele>352.52124</ele>
      </trkpt>
      <trkpt lat="43.23244" lon="6.36664">
        <ele>359.476257</ele>
      </trkpt>
      <trkpt lat="43.23301" lon="6.36548">
        <ele>358.257629</ele>
      </trkpt>
      <trkpt lat="43.23321" lon="6.36496">
        <ele>358.691193</ele>
      </trkpt>
      <trkpt lat="43.23334" lon="6.36463">
        <ele>353.717834</ele>
      </trkpt>
      <trkpt lat="43.23293" lon="6.36442">
        <ele>352.655396</ele>
      </trkpt>
      <trkpt lat="43.23195" lon="6.36505">
        <ele>352.942352</ele>
      </trkpt>
      <trkpt lat="43.23259" lon="6.36404">
        <ele>340.104401</ele>
      </trkpt>
      <trkpt lat="43.23308" lon="6.36383">
        <ele>337.17572</ele>
      </trkpt>
      <trkpt lat="43.23257" lon="6.36353">
        <ele>328.581726</ele>
      </trkpt>
      <trkpt lat="43.23434" lon="6.36348">
        <ele>316.548828</ele>
      </trkpt>
      <trkpt lat="43.2351" lon="6.36055">
        <ele>319.534821</ele>
      </trkpt>
      <trkpt lat="43.23741" lon="6.35958">
        <ele>334.815063</ele>
      </trkpt>
      <trkpt lat="43.2378" lon="6.35754">
        <ele>342.182343</ele>
      </trkpt>
      <trkpt lat="43.23824" lon="6.35711">
        <ele>349.142212</ele>
      </trkpt>
      <trkpt lat="43.23789" lon="6.35653">
        <ele>346.005951</ele>
      </trkpt>
      <trkpt lat="43.23793" lon="6.35618">
        <ele>348.161774</ele>
      </trkpt>
      <trkpt lat="43.23839" lon="6.35585">
        <ele>350.102692</ele>
      </trkpt>
      <trkpt lat="43.2391" lon="6.35257">
        <ele>307.861145</ele>
      </trkpt>
      <trkpt lat="43.23928" lon="6.35277">
        <ele>295.801331</ele>
      </trkpt>
      <trkpt lat="43.23962" lon="6.3519">
        <ele>285.501251</ele>
      </trkpt>
      <trkpt lat="43.24022" lon="6.35124">
        <ele>259.140533</ele>
      </trkpt>
      <trkpt lat="43.23972" lon="6.35052">
        <ele>276.627747</ele>
      </trkpt>
      <trkpt lat="43.2403" lon="6.35013">
        <ele>269.047546</ele>
      </trkpt>
      <trkpt lat="43.24087" lon="6.35002">
        <ele>258.480713</ele>
      </trkpt>
      <trkpt lat="43.24132" lon="6.34799">
        <ele>233.53598</ele>
      </trkpt>
      <trkpt lat="43.24138" lon="6.34678">
        <ele>230.977783</ele>
      </trkpt>
      <trkpt lat="43.24172" lon="6.34622">
        <ele>218.776245</ele>
      </trkpt>
      <trkpt lat="43.24189" lon="6.3442">
        <ele>209.880463</ele>
      </trkpt>
      <trkpt lat="43.24168" lon="6.34357">
        <ele>214.302856</ele>
      </trkpt>
      <trkpt lat="43.24227" lon="6.34115">
        <ele>207.381821</ele>
      </trkpt>
      <trkpt lat="43.24199" lon="6.33991">
        <ele>197.878967</ele>
      </trkpt>
      <trkpt lat="43.24297" lon="6.34046">
        <ele>205.890533</ele>
      </trkpt>
      <trkpt lat="43.24354" lon="6.33982">
        <ele>208.375961</ele>
      </trkpt>
      <trkpt lat="43.24438" lon="6.33834">
        <ele>200.903748</ele>
      </trkpt>
      <trkpt lat="43.2444" lon="6.34025">
        <ele>229.553741</ele>
      </trkpt>
      <trkpt lat="43.2457" lon="6.34022">
        <ele>224.029358</ele>
      </trkpt>
      <trkpt lat="43.24618" lon="6.34075">
        <ele>235.451111</ele>
      </trkpt>
      <trkpt lat="43.24845" lon="6.34127">
        <ele>235.521805</ele>
      </trkpt>
      <trkpt lat="43.24974" lon="6.3394">
        <ele>234.870819</ele>
      </trkpt>
      <trkpt lat="43.24953" lon="6.34018">
        <ele>244.370972</ele>
      </trkpt>
      <trkpt lat="43.24976" lon="6.34106">
        <ele>246.933746</ele>
      </trkpt>
      <trkpt lat="43.25075" lon="6.34257">
        <ele>259.159546</ele>
      </trkpt>
      <trkpt lat="43.25157" lon="6.34288">
        <ele>258.178772</ele>
      </trkpt>
      <trkpt lat="43.25223" lon="6.34406">
        <ele>262.156494</ele>
      </trkpt>
      <trkpt lat="43.25224" lon="6.34483">
        <ele>274.685211</ele>
      </trkpt>
      <trkpt lat="43.25417" lon="6.34358">
        <ele>284.839539</ele>
      </trkpt>
      <trkpt lat="43.25484" lon="6.3447">
        <ele>282.976135</ele>
      </trkpt>
      <trkpt lat="43.25488" lon="6.34615">
        <ele>288.270691</ele>
      </trkpt>
      <trkpt lat="43.25461" lon="6.34866">
        <ele>318.482361</ele>
      </trkpt>
      <trkpt lat="43.25589" lon="6.34924">
        <ele>335.169189</ele>
      </trkpt>
      <trkpt lat="43.25696" lon="6.34833">
        <ele>308.758209</ele>
      </trkpt>
      <trkpt lat="43.25692" lon="6.34931">
        <ele>332.468475</ele>
      </trkpt>
      <trkpt lat="43.25854" lon="6.34862">
        <ele>325.948975</ele>
      </trkpt>
      <trkpt lat="43.25897" lon="6.34958">
        <ele>338.687775</ele>
      </trkpt>
      <trkpt lat="43.25966" lon="6.3499">
        <ele>335.915955</ele>
      </trkpt>
      <trkpt lat="43.26015" lon="6.3512">
        <ele>343.565125</ele>
      </trkpt>
      <trkpt lat="43.26074" lon="6.3529">
        <ele>356.301514</ele>
      </trkpt>
      <trkpt lat="43.26133" lon="6.35325">
        <ele>348.049377</ele>
      </trkpt>
      <trkpt lat="43.26062" lon="6.35382">
        <ele>363.342865</ele>
      </trkpt>
      <trkpt lat="43.25997" lon="6.35568">
        <ele>377.727844</ele>
      </trkpt>
      <trkpt lat="43.25985" lon="6.35777">
        <ele>389.213928</ele>
      </trkpt>
      <trkpt lat="43.26131" lon="6.35602">
        <ele>391.306793</ele>
      </trkpt>
      <trkpt lat="43.26315" lon="6.35597">
        <ele>406.283722</ele>
      </trkpt>
      <trkpt lat="43.26373" lon="6.3573">
        <ele>407.668396</ele>
      </trkpt>
      <trkpt lat="43.26348" lon="6.35814">
        <ele>423.592133</ele>
      </trkpt>
      <trkpt lat="43.26423" lon="6.35838">
        <ele>418.174927</ele>
      </trkpt>
      <trkpt lat="43.26497" lon="6.35782">
        <ele>418.697144</ele>
      </trkpt>
      <trkpt lat="43.26775" lon="6.35924">
        <ele>430.556335</ele>
      </trkpt>
      <trkpt lat="43.26753" lon="6.36009">
        <ele>444.961243</ele>
      </trkpt>
      <trkpt lat="43.26776" lon="6.36072">
        <ele>437.124603</ele>
      </trkpt>
      <trkpt lat="43.26747" lon="6.36116">
        <ele>451.337189</ele>
      </trkpt>
      <trkpt lat="43.26742" lon="6.36193">
        <ele>455.051666</ele>
      </trkpt>
      <trkpt lat="43.26808" lon="6.3628">
        <ele>445.568268</ele>
      </trkpt>
      <trkpt lat="43.2673" lon="6.36497">
        <ele>456.047394</ele>
      </trkpt>
      <trkpt lat="43.26853" lon="6.36518">
        <ele>444.774109</ele>
      </trkpt>
      <trkpt lat="43.26806" lon="6.36696">
        <ele>473.0336</ele>
      </trkpt>
      <trkpt lat="43.26825" lon="6.36728">
        <ele>476.051147</ele>
      </trkpt>
      <trkpt lat="43.26945" lon="6.36601">
        <ele>464.748901</ele>
      </trkpt>
      <trkpt lat="43.27095" lon="6.36679">
        <ele>474.388458</ele>
      </trkpt>
      <trkpt lat="43.27148" lon="6.36757">
        <ele>492.444244</ele>
      </trkpt>
      <trkpt lat="43.27203" lon="6.36557">
        <ele>493.752686</ele>
      </trkpt>
      <trkpt lat="43.27193" lon="6.36409">
        <ele>491.437836</ele>
      </trkpt>
      <trkpt lat="43.27452" lon="6.36455">
        <ele>517.57959</ele>
      </trkpt>
      <trkpt lat="43.27483" lon="6.36402">
        <ele>513.735901</ele>
      </trkpt>
      <trkpt lat="43.27521" lon="6.36411">
        <ele>516.362488</ele>
      </trkpt>
      <trkpt lat="43.27574" lon="6.36494">
        <ele>525.702087</ele>
      </trkpt>
      <trkpt lat="43.2766" lon="6.3654">
        <ele>535.702148</ele>
      </trkpt>
      <trkpt lat="43.27788" lon="6.36426">
        <ele>540.930664</ele>
      </trkpt>
      <trkpt lat="43.27973" lon="6.36294">
        <ele>550.580261</ele>
      </trkpt>
      <trkpt lat="43.28088" lon="6.36272">
        <ele>557.311768</ele>
      </trkpt>
      <trkpt lat="43.28083" lon="6.36472">
        <ele>563.020142</ele>
      </trkpt>
      <trkpt lat="43.28075" lon="6.36517">
        <ele>564.493469</ele>
      </trkpt>
      <trkpt lat="43.27815" lon="6.36674">
        <ele>592.830933</ele>
      </trkpt>
      <trkpt lat="43.27809" lon="6.36831">
        <ele>595.94397</ele>
      </trkpt>
      <trkpt lat="43.27858" lon="6.36896">
        <ele>590.510864</ele>
      </trkpt>
      <trkpt lat="43.27813" lon="6.37028">
        <ele>600.244873</ele>
      </trkpt>
      <trkpt lat="43.27884" lon="6.37175">
        <ele>605.643066</ele>
      </trkpt>
      <trkpt lat="43.28329" lon="6.37533">
        <ele>612.138733</ele>
      </trkpt>
      <trkpt lat="43.28573" lon="6.3775">
        <ele>639.850708</ele>
      </trkpt>
      <trkpt lat="43.28756" lon="6.37904">
        <ele>643.885071</ele>
      </trkpt>
      <trkpt lat="43.28964" lon="6.38061">
        <ele>649.989624</ele>
      </trkpt>
      <trkpt lat="43.28993" lon="6.38241">
        <ele>653.088989</ele>
      </trkpt>
      <trkpt lat="43.28954" lon="6.38506">
        <ele>651.60321</ele>
      </trkpt>
      <trkpt lat="43.28842" lon="6.38612">
        <ele>651.147827</ele>
      </trkpt>
      <trkpt lat="43.28815" lon="6.38734">
        <ele>653.109985</ele>
      </trkpt>
      <trkpt lat="43.28954" lon="6.38916">
        <ele>647.379517</ele>
      </trkpt>
      <trkpt lat="43.29048" lon="6.39163">
        <ele>629.277771</ele>
      </trkpt>
      <trkpt lat="43.29245" lon="6.39198">
        <ele>630.51123</ele>
      </trkpt>
      <trkpt lat="43.293" lon="6.39298">
        <ele>634.216614</ele>
      </trkpt>
      <trkpt lat="43.29373" lon="6.3933">
        <ele>634.152466</ele>
      </trkpt>
      <trkpt lat="43.29469" lon="6.39932">
        <ele>630.789673</ele>
      </trkpt>
      <trkpt lat="43.29607" lon="6.4008">
        <ele>617.052063</ele>
      </trkpt>
      <trkpt lat="43.2976" lon="6.40146">
        <ele>617.265747</ele>
      </trkpt>
      <trkpt lat="43.29822" lon="6.40345">
        <ele>602.622498</ele>
      </trkpt>
      <trkpt lat="43.29918" lon="6.40422">
        <ele>604.514526</ele>
      </trkpt>
      <trkpt lat="43.2992" lon="6.4045">
        <ele>600.747253</ele>
      </trkpt>
      <trkpt lat="43.29844" lon="6.40614">
        <ele>587.069031</ele>
      </trkpt>
      <trkpt lat="43.29845" lon="6.40864">
        <ele>591.734192</ele>
      </trkpt>
      <trkpt lat="43.29914" lon="6.40893">
        <ele>573.494568</ele>
      </trkpt>
      <trkpt lat="43.29919" lon="6.4098">
        <ele>576.178284</ele>
      </trkpt>
      <trkpt lat="43.29937" lon="6.41126">
        <ele>571.743042</ele>
      </trkpt>
      <trkpt lat="43.29916" lon="6.41322">
        <ele>571.689209</ele>
      </trkpt>
      <trkpt lat="43.29927" lon="6.41504">
        <ele>570.934814</ele>
      </trkpt>
      <trkpt lat="43.29951" lon="6.4158">
        <ele>572.502258</ele>
      </trkpt>
      <trkpt lat="43.30077" lon="6.41746">
        <ele>573.261902</ele>
      </trkpt>
      <trkpt lat="43.30182" lon="6.41904">
        <ele>581.359924</ele>
      </trkpt>
      <trkpt lat="43.30155" lon="6.41954">
        <ele>566.708496</ele>
      </trkpt>
      <trkpt lat="43.3022" lon="6.42187">
        <ele>560.187439</ele>
      </trkpt>
      <trkpt lat="43.30212" lon="6.42454">
        <ele>570.500244</ele>
      </trkpt>
      <trkpt lat="43.30236" lon="6.42773">
        <ele>577.116638</ele>
      </trkpt>
      <trkpt lat="43.30311" lon="6.42979">
        <ele>564.006958</ele>
      </trkpt>
      <trkpt lat="43.30124" lon="6.43261">
        <ele>554.683167</ele>
      </trkpt>
      <trkpt lat="43.2991" lon="6.44152">
        <ele>574.663879</ele>
      </trkpt>
      <trkpt lat="43.2991" lon="6.44626">
        <ele>567.9552</ele>
      </trkpt>
      <trkpt lat="43.29981" lon="6.44779">
        <ele>570.200012</ele>
      </trkpt>
      <trkpt lat="43.29923" lon="6.45033">
        <ele>565.530212</ele>
      </trkpt>
      <trkpt lat="43.30274" lon="6.45317">
        <ele>538.394043</ele>
      </trkpt>
      <trkpt lat="43.30253" lon="6.45405">
        <ele>545.825928</ele>
      </trkpt>
      <trkpt lat="43.30302" lon="6.45449">
        <ele>538.707458</ele>
      </trkpt>
      <trkpt lat="43.30466" lon="6.45306">
        <ele>532.128479</ele>
      </trkpt>
      <trkpt lat="43.30622" lon="6.4504">
        <ele>515.104675</ele>
      </trkpt>
      <trkpt lat="43.30829" lon="6.44987">
        <ele>502.550659</ele>
      </trkpt>
      <trkpt lat="43.3051" lon="6.45845">
        <ele>510.322876</ele>
      </trkpt>
      <trkpt lat="43.30516" lon="6.4604">
        <ele>508.371521</ele>
      </trkpt>
      <trkpt lat="43.30686" lon="6.46135">
        <ele>504.827209</ele>
      </trkpt>
      <trkpt lat="43.30811" lon="6.46366">
        <ele>495.418549</ele>
      </trkpt>
      <trkpt lat="43.31082" lon="6.46496">
        <ele>486.123749</ele>
      </trkpt>
      <trkpt lat="43.31172" lon="6.46438">
        <ele>478.755005</ele>
      </trkpt>
      <trkpt lat="43.31217" lon="6.46334">
        <ele>468.363525</ele>
      </trkpt>
      <trkpt lat="43.3134" lon="6.46389">
        <ele>464.648895</ele>
      </trkpt>
      <trkpt lat="43.31551" lon="6.46336">
        <ele>443.626373</ele>
      </trkpt>
      <trkpt lat="43.31632" lon="6.46511">
        <ele>433.848358</ele>
      </trkpt>
      <trkpt lat="43.31533" lon="6.46628">
        <ele>433.478699</ele>
      </trkpt>
      <trkpt lat="43.31424" lon="6.46706">
        <ele>425.414581</ele>
      </trkpt>
      <trkpt lat="43.31308" lon="6.46808">
        <ele>415.242859</ele>
      </trkpt>
      <trkpt lat="43.31192" lon="6.46837">
        <ele>407.453308</ele>
      </trkpt>
      <trkpt lat="43.31275" lon="6.46902">
        <ele>390.364166</ele>
      </trkpt>
      <trkpt lat="43.31494" lon="6.46896">
        <ele>372.393433</ele>
      </trkpt>
      <trkpt lat="43.31447" lon="6.47105">
        <ele>351.016083</ele>
      </trkpt>
      <trkpt lat="43.31773" lon="6.46996">
        <ele>337.778931</ele>
      </trkpt>
      <trkpt lat="43.31753" lon="6.47059">
        <ele>337.025085</ele>
      </trkpt>
      <trkpt lat="43.31684" lon="6.47202">
        <ele>330.166077</ele>
      </trkpt>
      <trkpt lat="43.31698" lon="6.47253">
        <ele>329.92453</ele>
      </trkpt>
      <trkpt lat="43.31735" lon="6.47341">
        <ele>336.325348</ele>
      </trkpt>
      <trkpt lat="43.31799" lon="6.47392">
        <ele>339.377533</ele>
      </trkpt>
      <trkpt lat="43.31944" lon="6.47597">
        <ele>350.873871</ele>
      </trkpt>
      <trkpt lat="43.32133" lon="6.47641">
        <ele>344.048645</ele>
      </trkpt>
      <trkpt lat="43.32144" lon="6.47892">
        <ele>343.104187</ele>
      </trkpt>
      <trkpt lat="43.3222" lon="6.48064">
        <ele>339.382507</ele>
      </trkpt>
      <trkpt lat="43.32324" lon="6.48068">
        <ele>352.003754</ele>
      </trkpt>
      <trkpt lat="43.32349" lon="6.48101">
        <ele>353.375946</ele>
      </trkpt>
      <trkpt lat="43.32365" lon="6.48274">
        <ele>357.460083</ele>
      </trkpt>
      <trkpt lat="43.32341" lon="6.48313">
        <ele>354.267609</ele>
      </trkpt>
      <trkpt lat="43.32335" lon="6.48405">
        <ele>352.592651</ele>
      </trkpt>
      <trkpt lat="43.32381" lon="6.48568">
        <ele>357.083313</ele>
      </trkpt>
      <trkpt lat="43.32455" lon="6.48749">
        <ele>360.147705</ele>
      </trkpt>
      <trkpt lat="43.32315" lon="6.48986">
        <ele>354.953705</ele>
      </trkpt>
      <trkpt lat="43.32329" lon="6.4903">
        <ele>352.298737</ele>
      </trkpt>
      <trkpt lat="43.32414" lon="6.49054">
        <ele>357.486145</ele>
      </trkpt>
      <trkpt lat="43.3241" lon="6.491">
        <ele>358.831116</ele>
      </trkpt>
      <trkpt lat="43.32356" lon="6.49164">
        <ele>354.725311</ele>
      </trkpt>
      <trkpt lat="43.32333" lon="6.49227">
        <ele>353.411469</ele>
      </trkpt>
      <trkpt lat="43.32382" lon="6.49305">
        <ele>351.873016</ele>
      </trkpt>
      <trkpt lat="43.32466" lon="6.49329">
        <ele>350.053436</ele>
      </trkpt>
      <trkpt lat="43.32584" lon="6.49242">
        <ele>354.523682</ele>
      </trkpt>
      <trkpt lat="43.32675" lon="6.4928">
        <ele>352.905701</ele>
      </trkpt>
      <trkpt lat="43.3265" lon="6.49401">
        <ele>348.465302</ele>
      </trkpt>
      <trkpt lat="43.32693" lon="6.49583">
        <ele>353.524475</ele>
      </trkpt>
      <trkpt lat="43.3267" lon="6.49637">
        <ele>355.238495</ele>
      </trkpt>
      <trkpt lat="43.32677" lon="6.49676">
        <ele>358.659119</ele>
      </trkpt>
      <trkpt lat="43.32678" lon="6.4968">
        <ele>359.190857</ele>
      </trkpt>
      <trkpt lat="43.32686" lon="6.49732">
        <ele>366.633057</ele>
      </trkpt>
      <trkpt lat="43.32674" lon="6.49764">
        <ele>367.324585</ele>
      </trkpt>
      <trkpt lat="43.32674" lon="6.49766">
        <ele>367.6297</ele>
      </trkpt>
      <trkpt lat="43.32635" lon="6.49783">
        <ele>364.192505</ele>
      </trkpt>
      <trkpt lat="43.32631" lon="6.49785">
        <ele>364.153748</ele>
      </trkpt>
      <trkpt lat="43.32596" lon="6.49812">
        <ele>365.075165</ele>
      </trkpt>
      <trkpt lat="43.32591" lon="6.49818">
        <ele>365.540558</ele>
      </trkpt>
      <trkpt lat="43.32588" lon="6.49822">
        <ele>366.163025</ele>
      </trkpt>
      <trkpt lat="43.32544" lon="6.49861">
        <ele>369.010437</ele>
      </trkpt>
      <trkpt lat="43.32541" lon="6.49861">
        <ele>368.548096</ele>
      </trkpt>
      <trkpt lat="43.32492" lon="6.49908">
        <ele>368.982971</ele>
      </trkpt>
      <trkpt lat="43.3246" lon="6.49976">
        <ele>371.862488</ele>
      </trkpt>
      <trkpt lat="43.32461" lon="6.49976">
        <ele>372.095001</ele>
      </trkpt>
      <trkpt lat="43.3246" lon="6.50017">
        <ele>368.883453</ele>
      </trkpt>
      <trkpt lat="43.32463" lon="6.50017">
        <ele>369.44162</ele>
      </trkpt>
      <trkpt lat="43.32498" lon="6.50029">
        <ele>374.427917</ele>
      </trkpt>
      <trkpt lat="43.32501" lon="6.50031">
        <ele>374.583679</ele>
      </trkpt>
      <trkpt lat="43.32541" lon="6.50066">
        <ele>376.461578</ele>
      </trkpt>
      <trkpt lat="43.32548" lon="6.5007">
        <ele>377.374115</ele>
      </trkpt>
      <trkpt lat="43.32583" lon="6.50112">
        <ele>380.207489</ele>
      </trkpt>
      <trkpt lat="43.32593" lon="6.50173">
        <ele>380.935699</ele>
      </trkpt>
      <trkpt lat="43.32569" lon="6.50192">
        <ele>379.670654</ele>
      </trkpt>
      <trkpt lat="43.32562" lon="6.50192">
        <ele>379.05484</ele>
      </trkpt>
      <trkpt lat="43.32527" lon="6.50185">
        <ele>374.688446</ele>
      </trkpt>
      <trkpt lat="43.32526" lon="6.50185">
        <ele>374.589539</ele>
      </trkpt>
      <trkpt lat="43.32467" lon="6.50183">
        <ele>369.2341</ele>
      </trkpt>
      <trkpt lat="43.32464" lon="6.50183">
        <ele>369.009094</ele>
      </trkpt>
      <trkpt lat="43.32351" lon="6.50198">
        <ele>369.847504</ele>
      </trkpt>
      <trkpt lat="43.32277" lon="6.50171">
        <ele>362.042419</ele>
      </trkpt>
      <trkpt lat="43.32215" lon="6.50163">
        <ele>357.885834</ele>
      </trkpt>
      <trkpt lat="43.32214" lon="6.50163">
        <ele>357.815308</ele>
      </trkpt>
      <trkpt lat="43.32181" lon="6.50149">
        <ele>352.97168</ele>
      </trkpt>
      <trkpt lat="43.3218" lon="6.50149">
        <ele>352.839813</ele>
      </trkpt>
      <trkpt lat="43.32122" lon="6.50179">
        <ele>351.093567</ele>
      </trkpt>
      <trkpt lat="43.32119" lon="6.50179">
        <ele>350.618073</ele>
      </trkpt>
      <trkpt lat="43.32055" lon="6.50225">
        <ele>346.8125</ele>
      </trkpt>
      <trkpt lat="43.32055" lon="6.50227">
        <ele>347.297485</ele>
      </trkpt>
      <trkpt lat="43.32006" lon="6.50278">
        <ele>345.075195</ele>
      </trkpt>
      <trkpt lat="43.31964" lon="6.50284">
        <ele>338.614868</ele>
      </trkpt>
      <trkpt lat="43.3196" lon="6.50286">
        <ele>338.210754</ele>
      </trkpt>
      <trkpt lat="43.3194" lon="6.5029">
        <ele>335.929565</ele>
      </trkpt>
      <trkpt lat="43.31874" lon="6.50292">
        <ele>327.641266</ele>
      </trkpt>
      <trkpt lat="43.31828" lon="6.50276">
        <ele>325.013153</ele>
      </trkpt>
      <trkpt lat="43.3177" lon="6.50292">
        <ele>320.070007</ele>
      </trkpt>
      <trkpt lat="43.31767" lon="6.50292">
        <ele>319.713745</ele>
      </trkpt>
      <trkpt lat="43.318" lon="6.50257">
        <ele>322.495209</ele>
      </trkpt>
      <trkpt lat="43.31801" lon="6.50257">
        <ele>322.611084</ele>
      </trkpt>
      <trkpt lat="43.31839" lon="6.50241">
        <ele>322.484711</ele>
      </trkpt>
      <trkpt lat="43.31831" lon="6.50218">
        <ele>316.297516</ele>
      </trkpt>
      <trkpt lat="43.31829" lon="6.50218">
        <ele>316.221252</ele>
      </trkpt>
      <trkpt lat="43.31743" lon="6.50243">
        <ele>314.446198</ele>
      </trkpt>
      <trkpt lat="43.31742" lon="6.50243">
        <ele>314.284058</ele>
      </trkpt>
      <trkpt lat="43.31634" lon="6.50261">
        <ele>300.310791</ele>
      </trkpt>
      <trkpt lat="43.31629" lon="6.50261">
        <ele>299.811584</ele>
      </trkpt>
      <trkpt lat="43.31538" lon="6.50261">
        <ele>288.855255</ele>
      </trkpt>
      <trkpt lat="43.31538" lon="6.50264">
        <ele>289.234894</ele>
      </trkpt>
      <trkpt lat="43.31478" lon="6.50243">
        <ele>282.401306</ele>
      </trkpt>
      <trkpt lat="43.31408" lon="6.50218">
        <ele>280.654449</ele>
      </trkpt>
      <trkpt lat="43.31401" lon="6.50218">
        <ele>280.827271</ele>
      </trkpt>
      <trkpt lat="43.31311" lon="6.50161">
        <ele>275.001678</ele>
      </trkpt>
      <trkpt lat="43.31309" lon="6.50161">
        <ele>275.069366</ele>
      </trkpt>
      <trkpt lat="43.31266" lon="6.50148">
        <ele>270.787048</ele>
      </trkpt>
      <trkpt lat="43.31215" lon="6.50243">
        <ele>264.440552</ele>
      </trkpt>
      <trkpt lat="43.31214" lon="6.50245">
        <ele>264.278351</ele>
      </trkpt>
      <trkpt lat="43.31196" lon="6.50303">
        <ele>258.902435</ele>
      </trkpt>
      <trkpt lat="43.31239" lon="6.50305">
        <ele>259.892944</ele>
      </trkpt>
      <trkpt lat="43.31241" lon="6.50305">
        <ele>259.934723</ele>
      </trkpt>
      <trkpt lat="43.31293" lon="6.50305">
        <ele>264.305145</ele>
      </trkpt>
      <trkpt lat="43.31317" lon="6.50362">
        <ele>252.831223</ele>
      </trkpt>
      <trkpt lat="43.31373" lon="6.50403">
        <ele>250.652206</ele>
      </trkpt>
      <trkpt lat="43.31437" lon="6.50399">
        <ele>253.829727</ele>
      </trkpt>
      <trkpt lat="43.31441" lon="6.50399">
        <ele>253.926483</ele>
      </trkpt>
      <trkpt lat="43.31499" lon="6.5045">
        <ele>241.896637</ele>
      </trkpt>
      <trkpt lat="43.31571" lon="6.50452">
        <ele>243.59993</ele>
      </trkpt>
      <trkpt lat="43.31594" lon="6.50455">
        <ele>243.408279</ele>
      </trkpt>
      <trkpt lat="43.31599" lon="6.50457">
        <ele>243.289398</ele>
      </trkpt>
      <trkpt lat="43.31631" lon="6.50487">
        <ele>237.973511</ele>
      </trkpt>
      <trkpt lat="43.31668" lon="6.50506">
        <ele>235.082504</ele>
      </trkpt>
      <trkpt lat="43.3167" lon="6.5051">
        <ele>234.104996</ele>
      </trkpt>
      <trkpt lat="43.31711" lon="6.50539">
        <ele>229.190811</ele>
      </trkpt>
      <trkpt lat="43.31769" lon="6.50574">
        <ele>224.00914</ele>
      </trkpt>
      <trkpt lat="43.31848" lon="6.50631">
        <ele>220.020004</ele>
      </trkpt>
      <trkpt lat="43.31869" lon="6.5065">
        <ele>219.529312</ele>
      </trkpt>
      <trkpt lat="43.31912" lon="6.50711">
        <ele>217.850189</ele>
      </trkpt>
      <trkpt lat="43.31903" lon="6.5073">
        <ele>220.229401</ele>
      </trkpt>
      <trkpt lat="43.31903" lon="6.5073">
        <ele>220.235748</ele>
      </trkpt>
      <trkpt lat="43.31887" lon="6.50723">
        <ele>218.912933</ele>
      </trkpt>
      <trkpt lat="43.31886" lon="6.50723">
        <ele>218.907196</ele>
      </trkpt>
      <trkpt lat="43.31872" lon="6.50712">
        <ele>216.299362</ele>
      </trkpt>
      <trkpt lat="43.31871" lon="6.50711">
        <ele>216.112503</ele>
      </trkpt>
      <trkpt lat="43.31841" lon="6.50694">
        <ele>212.744537</ele>
      </trkpt>
      <trkpt lat="43.31811" lon="6.50682">
        <ele>212.102219</ele>
      </trkpt>
      <trkpt lat="43.3178" lon="6.50672">
        <ele>212.413879</ele>
      </trkpt>
      <trkpt lat="43.3178" lon="6.50672">
        <ele>212.413254</ele>
      </trkpt>
      <trkpt lat="43.3176" lon="6.50662">
        <ele>211.622269</ele>
      </trkpt>
      <trkpt lat="43.31698" lon="6.50652">
        <ele>207.601547</ele>
      </trkpt>
      <trkpt lat="43.31639" lon="6.5067">
        <ele>200.880127</ele>
      </trkpt>
      <trkpt lat="43.31635" lon="6.5067">
        <ele>200.334183</ele>
      </trkpt>
      <trkpt lat="43.31584" lon="6.50676">
        <ele>199.005539</ele>
      </trkpt>
      <trkpt lat="43.31574" lon="6.50676">
        <ele>198.497635</ele>
      </trkpt>
      <trkpt lat="43.3157" lon="6.50676">
        <ele>198.287949</ele>
      </trkpt>
      <trkpt lat="43.31508" lon="6.5066">
        <ele>194.388412</ele>
      </trkpt>
      <trkpt lat="43.31504" lon="6.50656">
        <ele>194.643387</ele>
      </trkpt>
      <trkpt lat="43.31456" lon="6.50631">
        <ele>194.26062</ele>
      </trkpt>
      <trkpt lat="43.31384" lon="6.50613">
        <ele>192.391693</ele>
      </trkpt>
      <trkpt lat="43.31383" lon="6.50613">
        <ele>192.362717</ele>
      </trkpt>
      <trkpt lat="43.31247" lon="6.50648">
        <ele>189.882492</ele>
      </trkpt>
      <trkpt lat="43.31173" lon="6.50668">
        <ele>193.210464</ele>
      </trkpt>
      <trkpt lat="43.3117" lon="6.5067">
        <ele>193.728439</ele>
      </trkpt>
      <trkpt lat="43.31108" lon="6.50675">
        <ele>194.301041</ele>
      </trkpt>
      <trkpt lat="43.31107" lon="6.50677">
        <ele>194.665451</ele>
      </trkpt>
      <trkpt lat="43.31059" lon="6.50705">
        <ele>197.138626</ele>
      </trkpt>
      <trkpt lat="43.31055" lon="6.50711">
        <ele>197.465897</ele>
      </trkpt>
      <trkpt lat="43.31026" lon="6.50734">
        <ele>198.307404</ele>
      </trkpt>
      <trkpt lat="43.31023" lon="6.50779">
        <ele>196.425201</ele>
      </trkpt>
      <trkpt lat="43.31026" lon="6.50779">
        <ele>196.849396</ele>
      </trkpt>
      <trkpt lat="43.31049" lon="6.50827">
        <ele>197.951248</ele>
      </trkpt>
      <trkpt lat="43.31088" lon="6.50839">
        <ele>205.258209</ele>
      </trkpt>
      <trkpt lat="43.31089" lon="6.50841">
        <ele>205.3116</ele>
      </trkpt>
      <trkpt lat="43.31116" lon="6.50903">
        <ele>204.913208</ele>
      </trkpt>
      <trkpt lat="43.3112" lon="6.50913">
        <ele>204.678192</ele>
      </trkpt>
      <trkpt lat="43.31187" lon="6.51009">
        <ele>217.522186</ele>
      </trkpt>
      <trkpt lat="43.31189" lon="6.51011">
        <ele>218.028656</ele>
      </trkpt>
      <trkpt lat="43.31183" lon="6.51067">
        <ele>214.581757</ele>
      </trkpt>
      <trkpt lat="43.31186" lon="6.51077">
        <ele>215.649155</ele>
      </trkpt>
      <trkpt lat="43.31186" lon="6.51079">
        <ele>215.626572</ele>
      </trkpt>
      <trkpt lat="43.31197" lon="6.51137">
        <ele>218.026703</ele>
      </trkpt>
      <trkpt lat="43.31201" lon="6.51143">
        <ele>218.779999</ele>
      </trkpt>
      <trkpt lat="43.31233" lon="6.5119">
        <ele>222.649994</ele>
      </trkpt>
      <trkpt lat="43.31259" lon="6.51217">
        <ele>225.577347</ele>
      </trkpt>
      <trkpt lat="43.31284" lon="6.51264">
        <ele>224.988754</ele>
      </trkpt>
      <trkpt lat="43.31286" lon="6.51264">
        <ele>225.479996</ele>
      </trkpt>
      <trkpt lat="43.31314" lon="6.51301">
        <ele>230.607483</ele>
      </trkpt>
      <trkpt lat="43.3133" lon="6.51371">
        <ele>234.494644</ele>
      </trkpt>
      <trkpt lat="43.31297" lon="6.51406">
        <ele>228.669998</ele>
      </trkpt>
      <trkpt lat="43.31294" lon="6.51406">
        <ele>227.970001</ele>
      </trkpt>
      <trkpt lat="43.31255" lon="6.51445">
        <ele>219.472229</ele>
      </trkpt>
      <trkpt lat="43.31253" lon="6.51445">
        <ele>218.944794</ele>
      </trkpt>
      <trkpt lat="43.31266" lon="6.51482">
        <ele>220.307648</ele>
      </trkpt>
      <trkpt lat="43.31267" lon="6.51486">
        <ele>220.486313</ele>
      </trkpt>
      <trkpt lat="43.31283" lon="6.51537">
        <ele>224.149445</ele>
      </trkpt>
      <trkpt lat="43.31294" lon="6.51552">
        <ele>227.519119</ele>
      </trkpt>
      <trkpt lat="43.31294" lon="6.51554">
        <ele>227.432632</ele>
      </trkpt>
      <trkpt lat="43.31279" lon="6.51597">
        <ele>224.477493</ele>
      </trkpt>
      <trkpt lat="43.31279" lon="6.51603">
        <ele>225.152496</ele>
      </trkpt>
      <trkpt lat="43.31262" lon="6.51661">
        <ele>222.633392</ele>
      </trkpt>
      <trkpt lat="43.3126" lon="6.51661">
        <ele>221.99675</ele>
      </trkpt>
      <trkpt lat="43.31259" lon="6.51722">
        <ele>220.169998</ele>
      </trkpt>
      <trkpt lat="43.31259" lon="6.51737">
        <ele>218.425003</ele>
      </trkpt>
      <trkpt lat="43.31257" lon="6.51782">
        <ele>211.594238</ele>
      </trkpt>
      <trkpt lat="43.31259" lon="6.51794">
        <ele>210.399567</ele>
      </trkpt>
      <trkpt lat="43.31283" lon="6.51833">
        <ele>208.60228</ele>
      </trkpt>
      <trkpt lat="43.31326" lon="6.51839">
        <ele>210.116547</ele>
      </trkpt>
      <trkpt lat="43.31329" lon="6.51839">
        <ele>210.027924</ele>
      </trkpt>
      <trkpt lat="43.31375" lon="6.51837">
        <ele>211.492493</ele>
      </trkpt>
      <trkpt lat="43.31442" lon="6.51901">
        <ele>200.662598</ele>
      </trkpt>
      <trkpt lat="43.31446" lon="6.51903">
        <ele>200.734146</ele>
      </trkpt>
      <trkpt lat="43.31489" lon="6.51895">
        <ele>200.346603</ele>
      </trkpt>
      <trkpt lat="43.31491" lon="6.51895">
        <ele>200.228745</ele>
      </trkpt>
      <trkpt lat="43.31536" lon="6.51899">
        <ele>199.155838</ele>
      </trkpt>
      <trkpt lat="43.3154" lon="6.51903">
        <ele>199.204178</ele>
      </trkpt>
      <trkpt lat="43.31571" lon="6.51903">
        <ele>198.110123</ele>
      </trkpt>
      <trkpt lat="43.31577" lon="6.51925">
        <ele>200.602341</ele>
      </trkpt>
      <trkpt lat="43.31523" lon="6.51962">
        <ele>200.611389</ele>
      </trkpt>
      <trkpt lat="43.31487" lon="6.51979">
        <ele>200.74202</ele>
      </trkpt>
      <trkpt lat="43.3146" lon="6.52024">
        <ele>202.448044</ele>
      </trkpt>
      <trkpt lat="43.31472" lon="6.52098">
        <ele>210.842026</ele>
      </trkpt>
      <trkpt lat="43.31497" lon="6.5214">
        <ele>216.777496</ele>
      </trkpt>
      <trkpt lat="43.31494" lon="6.5215">
        <ele>217.373001</ele>
      </trkpt>
      <trkpt lat="43.31493" lon="6.52153">
        <ele>217.473267</ele>
      </trkpt>
      <trkpt lat="43.31472" lon="6.52185">
        <ele>216.429993</ele>
      </trkpt>
      <trkpt lat="43.3147" lon="6.52191">
        <ele>216.797501</ele>
      </trkpt>
      <trkpt lat="43.31467" lon="6.52199">
        <ele>217.133881</ele>
      </trkpt>
      <trkpt lat="43.31474" lon="6.5225">
        <ele>224.729752</ele>
      </trkpt>
      <trkpt lat="43.31473" lon="6.5225">
        <ele>224.600449</ele>
      </trkpt>
      <trkpt lat="43.31449" lon="6.52263">
        <ele>223.466003</ele>
      </trkpt>
      <trkpt lat="43.31444" lon="6.52264">
        <ele>223.097092</ele>
      </trkpt>
      <trkpt lat="43.31425" lon="6.52264">
        <ele>222.082504</ele>
      </trkpt>
      <trkpt lat="43.31424" lon="6.52266">
        <ele>222.317505</ele>
      </trkpt>
      <trkpt lat="43.31421" lon="6.52289">
        <ele>226.867493</ele>
      </trkpt>
      <trkpt lat="43.3142" lon="6.52289">
        <ele>226.857498</ele>
      </trkpt>
      <trkpt lat="43.31403" lon="6.52292">
        <ele>227.232498</ele>
      </trkpt>
      <trkpt lat="43.31397" lon="6.52293">
        <ele>227.442505</ele>
      </trkpt>
      <trkpt lat="43.31396" lon="6.52293">
        <ele>227.4375</ele>
      </trkpt>
      <trkpt lat="43.31384" lon="6.52289">
        <ele>226.375427</ele>
      </trkpt>
      <trkpt lat="43.31381" lon="6.52292">
        <ele>226.783722</ele>
      </trkpt>
      <trkpt lat="43.31333" lon="6.52332">
        <ele>232.462921</ele>
      </trkpt>
      <trkpt lat="43.31332" lon="6.52332">
        <ele>232.339325</ele>
      </trkpt>
      <trkpt lat="43.31306" lon="6.52349">
        <ele>231.772003</ele>
      </trkpt>
      <trkpt lat="43.31306" lon="6.5235">
        <ele>231.997253</ele>
      </trkpt>
      <trkpt lat="43.31286" lon="6.52385">
        <ele>233.968079</ele>
      </trkpt>
      <trkpt lat="43.31283" lon="6.52388">
        <ele>233.790405</ele>
      </trkpt>
      <trkpt lat="43.31267" lon="6.52398">
        <ele>231.742188</ele>
      </trkpt>
      <trkpt lat="43.31267" lon="6.52399">
        <ele>231.927704</ele>
      </trkpt>
      <trkpt lat="43.31252" lon="6.52441">
        <ele>233.251877</ele>
      </trkpt>
      <trkpt lat="43.31251" lon="6.52444">
        <ele>233.1745</ele>
      </trkpt>
      <trkpt lat="43.31259" lon="6.5248">
        <ele>236.656372</ele>
      </trkpt>
      <trkpt lat="43.31262" lon="6.52482">
        <ele>237.271851</ele>
      </trkpt>
      <trkpt lat="43.31306" lon="6.52537">
        <ele>242.645248</ele>
      </trkpt>
      <trkpt lat="43.31306" lon="6.52538">
        <ele>242.654602</ele>
      </trkpt>
      <trkpt lat="43.31335" lon="6.52562">
        <ele>243.389175</ele>
      </trkpt>
      <trkpt lat="43.31336" lon="6.52562">
        <ele>243.575134</ele>
      </trkpt>
      <trkpt lat="43.31383" lon="6.52603">
        <ele>248.833969</ele>
      </trkpt>
      <trkpt lat="43.31381" lon="6.52601">
        <ele>248.952438</ele>
      </trkpt>
      <trkpt lat="43.31388" lon="6.52654">
        <ele>247.756805</ele>
      </trkpt>
      <trkpt lat="43.31386" lon="6.52655">
        <ele>247.896667</ele>
      </trkpt>
      <trkpt lat="43.31405" lon="6.52687">
        <ele>245.629089</ele>
      </trkpt>
      <trkpt lat="43.31411" lon="6.5274">
        <ele>248.510345</ele>
      </trkpt>
      <trkpt lat="43.31442" lon="6.52893">
        <ele>241.571701</ele>
      </trkpt>
      <trkpt lat="43.31438" lon="6.52936">
        <ele>244.187973</ele>
      </trkpt>
      <trkpt lat="43.31479" lon="6.53032">
        <ele>234.320313</ele>
      </trkpt>
      <trkpt lat="43.31481" lon="6.53152">
        <ele>228.860931</ele>
      </trkpt>
      <trkpt lat="43.31432" lon="6.53309">
        <ele>221.547852</ele>
      </trkpt>
      <trkpt lat="43.31342" lon="6.53425">
        <ele>222.02713</ele>
      </trkpt>
      <trkpt lat="43.31325" lon="6.53467">
        <ele>223.645889</ele>
      </trkpt>
      <trkpt lat="43.31343" lon="6.53527">
        <ele>210.851089</ele>
      </trkpt>
      <trkpt lat="43.31296" lon="6.53678">
        <ele>213.882706</ele>
      </trkpt>
      <trkpt lat="43.31291" lon="6.53816">
        <ele>207.635559</ele>
      </trkpt>
      <trkpt lat="43.31293" lon="6.53927">
        <ele>202.367218</ele>
      </trkpt>
      <trkpt lat="43.31276" lon="6.54024">
        <ele>207.507278</ele>
      </trkpt>
      <trkpt lat="43.313" lon="6.54146">
        <ele>197.786301</ele>
      </trkpt>
      <trkpt lat="43.31266" lon="6.54208">
        <ele>204.97847</ele>
      </trkpt>
      <trkpt lat="43.31357" lon="6.54317">
        <ele>197.712509</ele>
      </trkpt>
      <trkpt lat="43.31319" lon="6.54422">
        <ele>203.974594</ele>
      </trkpt>
      <trkpt lat="43.31279" lon="6.54681">
        <ele>192.634674</ele>
      </trkpt>
      <trkpt lat="43.31222" lon="6.54723">
        <ele>193.282028</ele>
      </trkpt>
      <trkpt lat="43.31169" lon="6.54904">
        <ele>185.853592</ele>
      </trkpt>
      <trkpt lat="43.31078" lon="6.55045">
        <ele>183.90918</ele>
      </trkpt>
      <trkpt lat="43.31024" lon="6.55121">
        <ele>180.177307</ele>
      </trkpt>
      <trkpt lat="43.30981" lon="6.55244">
        <ele>176.309998</ele>
      </trkpt>
      <trkpt lat="43.30964" lon="6.55332">
        <ele>178.759323</ele>
      </trkpt>
      <trkpt lat="43.30933" lon="6.55419">
        <ele>184.316254</ele>
      </trkpt>
      <trkpt lat="43.30747" lon="6.55561">
        <ele>175.584305</ele>
      </trkpt>
      <trkpt lat="43.3069" lon="6.55648">
        <ele>177.135895</ele>
      </trkpt>
      <trkpt lat="43.30584" lon="6.55796">
        <ele>170.107086</ele>
      </trkpt>
      <trkpt lat="43.30578" lon="6.55838">
        <ele>175.208557</ele>
      </trkpt>
      <trkpt lat="43.30523" lon="6.55877">
        <ele>184.340134</ele>
      </trkpt>
      <trkpt lat="43.30434" lon="6.55911">
        <ele>187.216232</ele>
      </trkpt>
      <trkpt lat="43.30394" lon="6.55959">
        <ele>195.682037</ele>
      </trkpt>
      <trkpt lat="43.30328" lon="6.56109">
        <ele>205.147644</ele>
      </trkpt>
      <trkpt lat="43.30245" lon="6.5641">
        <ele>204.47934</ele>
      </trkpt>
      <trkpt lat="43.3021" lon="6.5642">
        <ele>202.106567</ele>
      </trkpt>
      <trkpt lat="43.30186" lon="6.56535">
        <ele>185.649841</ele>
      </trkpt>
      <trkpt lat="43.30326" lon="6.56527">
        <ele>176.471329</ele>
      </trkpt>
      <trkpt lat="43.30393" lon="6.56572">
        <ele>166.98616</ele>
      </trkpt>
      <trkpt lat="43.30387" lon="6.56661">
        <ele>150.844849</ele>
      </trkpt>
      <trkpt lat="43.30295" lon="6.56848">
        <ele>129.435104</ele>
      </trkpt>
      <trkpt lat="43.30194" lon="6.57028">
        <ele>108.152107</ele>
      </trkpt>
      <trkpt lat="43.30205" lon="6.57103">
        <ele>86.740959</ele>
      </trkpt>
      <trkpt lat="43.30017" lon="6.57188">
        <ele>78.016975</ele>
      </trkpt>
      <trkpt lat="43.29743" lon="6.57432">
        <ele>73.498268</ele>
      </trkpt>
      <trkpt lat="43.29639" lon="6.57449">
        <ele>61.870853</ele>
      </trkpt>
      <trkpt lat="43.29538" lon="6.5743">
        <ele>48.917404</ele>
      </trkpt>
      <trkpt lat="43.29442" lon="6.57503">
        <ele>48.990002</ele>
      </trkpt>
      <trkpt lat="43.29201" lon="6.57448">
        <ele>37.409431</ele>
      </trkpt>
      <trkpt lat="43.2906" lon="6.57376">
        <ele>31.788034</ele>
      </trkpt>
      <trkpt lat="43.28875" lon="6.57455">
        <ele>25.216734</ele>
      </trkpt>
      <trkpt lat="43.28749" lon="6.57473">
        <ele>19.458202</ele>
      </trkpt>
      <trkpt lat="43.28728" lon="6.57448">
        <ele>16.803673</ele>
      </trkpt>
      <trkpt lat="43.28538" lon="6.57602">
        <ele>12.891712</ele>
      </trkpt>
      <trkpt lat="43.28331" lon="6.57612">
        <ele>14.27125</ele>
      </trkpt>
      <trkpt lat="43.28234" lon="6.57724">
        <ele>11.189187</ele>
      </trkpt>
      <trkpt lat="43.2814" lon="6.5777">
        <ele>9.78875</ele>
      </trkpt>
      <trkpt lat="43.28039" lon="6.57889">
        <ele>7.322391</ele>
      </trkpt>
      <trkpt lat="43.28124" lon="6.58204">
        <ele>5.5625</ele>
      </trkpt>
      <trkpt lat="43.28214" lon="6.58559">
        <ele>5.8875</ele>
      </trkpt>
    </trkseg>
  </trk>
</gpx>